Observation data for Fritch on 05/25/2019      Previous  Date  Next       Current Mesonet Observations  Soil Data  Daily Summary Page  Observations in Plain Language
KFR1 250500Z 17005KT 18/15 A2994 RMK A01 T01800148  RH  082%=      5-min Rain = 0
KFR1 250501Z 17005KT 18/15 A2994 RMK A01 T01810149  RH  081%=      5-min Rain = 0
KFR1 250502Z 16005KT 18/15 A2994 RMK A01 T01810149  RH  081%=      5-min Rain = 0
KFR1 250503Z 15005KT 18/15 A2995 RMK A01 T01810149  RH  081%=      5-min Rain = 0
KFR1 250504Z 16005KT 18/15 A2995 RMK A01 T01800148  RH  081%=      5-min Rain = 0
KFR1 250505Z 16005KT 18/15 A2994 RMK A01 T01800148  RH  081%=      5-min Rain = 0
KFR1 250506Z 17005KT 18/15 A2994 RMK A01 T01800148  RH  082%=      5-min Rain = 0
KFR1 250507Z 17007KT 18/15 A2995 RMK A01 T01800148  RH  082%=      5-min Rain = 0
KFR1 250508Z 17006KT 18/15 A2995 RMK A01 T01790147  RH  082%=      5-min Rain = 0
KFR1 250509Z 17005KT 18/15 A2995 RMK A01 T01790148  RH  082%=      5-min Rain = 0
KFR1 250510Z 17008KT 18/15 A2995 RMK A01 T01790148  RH  082%=      5-min Rain = 0
KFR1 250511Z 17007KT 18/15 A2995 RMK A01 T01790148  RH  082%=      5-min Rain = 0
KFR1 250512Z 17009KT 18/15 A2995 RMK A01 T01780148  RH  082%=      5-min Rain = 0
KFR1 250513Z 18007KT 18/15 A2995 RMK A01 T01780148  RH  082%=      5-min Rain = 0
KFR1 250514Z 18007KT 18/15 A2995 RMK A01 T01780148  RH  082%=      5-min Rain = 0
KFR1 250515Z 18007KT 18/15 A2995 RMK A01 T01780148  RH  083%=      5-min Rain = 0
KFR1 250516Z 17007KT 18/15 A2995 RMK A01 T01780148  RH  083%=      5-min Rain = 0
KFR1 250517Z 16006KT 18/15 A2995 RMK A01 T01770148  RH  083%=      5-min Rain = 0
KFR1 250518Z 16008KT 18/15 A2995 RMK A01 T01770148  RH  083%=      5-min Rain = 0
KFR1 250519Z 16008KT 18/15 A2995 RMK A01 T01770147  RH  083%=      5-min Rain = 0
KFR1 250520Z 16007KT 18/15 A2995 RMK A01 T01770147  RH  083%=      5-min Rain = 0
KFR1 250521Z 16008KT 18/15 A2995 RMK A01 T01770147  RH  083%=      5-min Rain = 0
KFR1 250522Z 16007KT 18/15 A2995 RMK A01 T01770147  RH  083%=      5-min Rain = 0
KFR1 250523Z 17006KT 18/15 A2995 RMK A01 T01770148  RH  083%=      5-min Rain = 0
KFR1 250524Z 17007KT 18/15 A2995 RMK A01 T01760148  RH  083%=      5-min Rain = 0
KFR1 250525Z 16006KT 18/15 A2995 RMK A01 T01760148  RH  083%=      5-min Rain = 0
KFR1 250526Z 17005KT 18/15 A2995 RMK A01 T01760148  RH  083%=      5-min Rain = 0
KFR1 250527Z 16004KT 18/15 A2995 RMK A01 T01760148  RH  084%=      5-min Rain = 0
KFR1 250528Z 16004KT 18/15 A2995 RMK A01 T01750147  RH  084%=      5-min Rain = 0
KFR1 250529Z 16005KT 17/15 A2995 RMK A01 T01740147  RH  084%=      5-min Rain = 0
KFR1 250530Z 16005KT 17/15 A2995 RMK A01 T01740147  RH  085%=      5-min Rain = 0
KFR1 250531Z 15004KT 17/15 A2995 RMK A01 T01730148  RH  085%=      5-min Rain = 0
KFR1 250532Z 16004KT 17/15 A2995 RMK A01 T01730148  RH  085%=      5-min Rain = 0
KFR1 250533Z 17006KT 17/15 A2995 RMK A01 T01720148  RH  085%=      5-min Rain = 0
KFR1 250534Z 16006KT 17/15 A2995 RMK A01 T01720148  RH  086%=      5-min Rain = 0
KFR1 250535Z 17006KT 17/15 A2995 RMK A01 T01710148  RH  086%=      5-min Rain = 0
KFR1 250536Z 17007KT 17/15 A2995 RMK A01 T01710148  RH  086%=      5-min Rain = 0
KFR1 250537Z 17008KT 17/15 A2995 RMK A01 T01710148  RH  086%=      5-min Rain = 0
KFR1 250538Z 18008KT 17/15 A2995 RMK A01 T01720148  RH  086%=      5-min Rain = 0
KFR1 250539Z 19005KT 17/15 A2995 RMK A01 T01730149  RH  086%=      5-min Rain = 0
KFR1 250540Z 19005KT 17/15 A2995 RMK A01 T01730149  RH  086%=      5-min Rain = 0
KFR1 250541Z 19005KT 17/15 A2995 RMK A01 T01720148  RH  086%=      5-min Rain = 0
KFR1 250542Z 19004KT 17/15 A2995 RMK A01 T01710148  RH  086%=      5-min Rain = 0
KFR1 250543Z 19006KT 17/15 A2995 RMK A01 T01720148  RH  086%=      5-min Rain = 0
KFR1 250544Z 19006KT 17/15 A2995 RMK A01 T01710148  RH  086%=      5-min Rain = 0
KFR1 250545Z 19006KT 17/15 A2995 RMK A01 T01720148  RH  086%=      5-min Rain = 0
KFR1 250546Z 18006KT 17/15 A2995 RMK A01 T01720148  RH  086%=      5-min Rain = 0
KFR1 250547Z 18006KT 17/15 A2995 RMK A01 T01720148  RH  086%=      5-min Rain = 0
KFR1 250548Z 18006KT 17/15 A2995 RMK A01 T01720149  RH  086%=      5-min Rain = 0
KFR1 250549Z 18005KT 17/15 A2995 RMK A01 T01720148  RH  086%=      5-min Rain = 0
KFR1 250550Z 19005KT 17/15 A2995 RMK A01 T01720148  RH  086%=      5-min Rain = 0
KFR1 250551Z 18005KT 17/15 A2995 RMK A01 T01710148  RH  086%=      5-min Rain = 0
KFR1 250552Z 19005KT 17/15 A2995 RMK A01 T01710148  RH  086%=      5-min Rain = 0
KFR1 250553Z 19006KT 17/15 A2995 RMK A01 T01700148  RH  087%=      5-min Rain = 0
KFR1 250554Z 20005KT 17/15 A2995 RMK A01 T01700149  RH  087%=      5-min Rain = 0
KFR1 250555Z 20004KT 17/15 A2995 RMK A01 T01700148  RH  087%=      5-min Rain = 0
KFR1 250556Z 20004KT 17/15 A2995 RMK A01 T01700148  RH  087%=      5-min Rain = 0
KFR1 250557Z 20005KT 17/15 A2995 RMK A01 T01700149  RH  087%=      5-min Rain = 0
KFR1 250558Z 20004KT 17/15 A2995 RMK A01 T01690148  RH  087%=      5-min Rain = 0
KFR1 250559Z 20004KT 17/15 A2994 RMK A01 T01690148  RH  088%=      5-min Rain = 0
KFR1 250600Z 20005KT 17/15 A2995 RMK A01 T01690148  RH  088%=      5-min Rain = 0
KFR1 250601Z 20005KT 17/15 A2995 RMK A01 T01690148  RH  088%=      5-min Rain = 0
KFR1 250602Z 21005KT 17/15 A2995 RMK A01 T01690148  RH  088%=      5-min Rain = 0
KFR1 250603Z 21005KT 17/15 A2995 RMK A01 T01690148  RH  088%=      5-min Rain = 0
KFR1 250604Z 22005KT 17/15 A2995 RMK A01 T01690148  RH  087%=      5-min Rain = 0
KFR1 250605Z 21005KT 17/15 A2995 RMK A01 T01690148  RH  087%=      5-min Rain = 0
KFR1 250606Z 21005KT 17/15 A2994 RMK A01 T01690147  RH  087%=      5-min Rain = 0
KFR1 250607Z 22004KT 17/15 A2994 RMK A01 T01700148  RH  087%=      5-min Rain = 0
KFR1 250608Z 21005KT 17/15 A2994 RMK A01 T01700147  RH  087%=      5-min Rain = 0
KFR1 250609Z 21004KT 17/15 A2994 RMK A01 T01700147  RH  086%=      5-min Rain = 0
KFR1 250610Z 21005KT 17/15 A2994 RMK A01 T01700147  RH  086%=      5-min Rain = 0
KFR1 250611Z 21005KT 17/15 A2994 RMK A01 T01700147  RH  086%=      5-min Rain = 0
KFR1 250612Z 21006KT 17/15 A2994 RMK A01 T01700146  RH  086%=      5-min Rain = 0
KFR1 250613Z 21005KT 17/15 A2994 RMK A01 T01710146  RH  086%=      5-min Rain = 0
KFR1 250614Z 21007KT 17/15 A2994 RMK A01 T01710146  RH  085%=      5-min Rain = 0
KFR1 250615Z 21005KT 17/15 A2994 RMK A01 T01730147  RH  085%=      5-min Rain = 0
KFR1 250616Z 21006KT 17/15 A2994 RMK A01 T01730146  RH  084%=      5-min Rain = 0
KFR1 250617Z 21006KT 17/15 A2995 RMK A01 T01740146  RH  084%=      5-min Rain = 0
KFR1 250618Z 21007KT 18/15 A2995 RMK A01 T01750146  RH  083%=      5-min Rain = 0
KFR1 250619Z 21006KT 18/15 A2995 RMK A01 T01750146  RH  083%=      5-min Rain = 0
KFR1 250620Z 22006KT 18/15 A2995 RMK A01 T01760147  RH  083%=      5-min Rain = 0
KFR1 250621Z 22008KT 18/15 A2995 RMK A01 T01760146  RH  083%=      5-min Rain = 0
KFR1 250622Z 21007KT 18/15 A2995 RMK A01 T01760146  RH  082%=      5-min Rain = 0
KFR1 250623Z 21007KT 18/15 A2995 RMK A01 T01770146  RH  082%=      5-min Rain = 0
KFR1 250624Z 21006KT 18/15 A2995 RMK A01 T01780146  RH  081%=      5-min Rain = 0
KFR1 250625Z 22007KT 18/15 A2995 RMK A01 T01780146  RH  081%=      5-min Rain = 0
KFR1 250626Z 21007KT 18/15 A2995 RMK A01 T01780145  RH  081%=      5-min Rain = 0
KFR1 250627Z 21006KT 18/15 A2995 RMK A01 T01780146  RH  081%=      5-min Rain = 0
KFR1 250628Z 21005KT 18/15 A2995 RMK A01 T01780146  RH  082%=      5-min Rain = 0
KFR1 250629Z 21005KT 18/15 A2995 RMK A01 T01770145  RH  082%=      5-min Rain = 0
KFR1 250630Z 20005KT 18/15 A2995 RMK A01 T01770145  RH  082%=      5-min Rain = 0
KFR1 250631Z 19005KT 18/15 A2995 RMK A01 T01770145  RH  082%=      5-min Rain = 0
KFR1 250632Z 19005KT 18/15 A2995 RMK A01 T01770145  RH  082%=      5-min Rain = 0
KFR1 250633Z 18005KT 18/15 A2995 RMK A01 T01760145  RH  082%=      5-min Rain = 0
KFR1 250634Z 19005KT 18/15 A2995 RMK A01 T01760145  RH  082%=      5-min Rain = 0
KFR1 250635Z 20004KT 18/15 A2995 RMK A01 T01760145  RH  082%=      5-min Rain = 0
KFR1 250636Z 19005KT 18/14 A2995 RMK A01 T01760144  RH  082%=      5-min Rain = 0
KFR1 250637Z 20005KT 18/14 A2995 RMK A01 T01750144  RH  082%=      5-min Rain = 0
KFR1 250638Z 19005KT 18/14 A2995 RMK A01 T01760144  RH  082%=      5-min Rain = 0
KFR1 250639Z 20004KT 18/14 A2995 RMK A01 T01760144  RH  082%=      5-min Rain = 0
KFR1 250640Z 19005KT 18/14 A2995 RMK A01 T01760144  RH  082%=      5-min Rain = 0
KFR1 250641Z 19004KT 18/14 A2995 RMK A01 T01760144  RH  082%=      5-min Rain = 0
KFR1 250642Z 18006KT 18/14 A2995 RMK A01 T01760144  RH  081%=      5-min Rain = 0
KFR1 250643Z 18004KT 18/15 A2995 RMK A01 T01760145  RH  082%=      5-min Rain = 0
KFR1 250644Z 18005KT 18/15 A2995 RMK A01 T01760145  RH  082%=      5-min Rain = 0
KFR1 250645Z 18004KT 18/15 A2996 RMK A01 T01760145  RH  082%=      5-min Rain = 0
KFR1 250646Z 18004KT 18/15 A2996 RMK A01 T01750145  RH  082%=      5-min Rain = 0
KFR1 250647Z 18004KT 18/15 A2996 RMK A01 T01750145  RH  083%=      5-min Rain = 0
KFR1 250648Z 18004KT 17/15 A2995 RMK A01 T01740145  RH  083%=      5-min Rain = 0
KFR1 250649Z 19004KT 17/15 A2995 RMK A01 T01740145  RH  083%=      5-min Rain = 0
KFR1 250650Z 19004KT 17/15 A2995 RMK A01 T01740145  RH  083%=      5-min Rain = 0
KFR1 250651Z 20006KT 17/15 A2995 RMK A01 T01740145  RH  083%=      5-min Rain = 0
KFR1 250652Z 19006KT 17/15 A2995 RMK A01 T01740146  RH  084%=      5-min Rain = 0
KFR1 250653Z 19006KT 18/15 A2995 RMK A01 T01750146  RH  083%=      5-min Rain = 0
KFR1 250654Z 20005KT 18/15 A2995 RMK A01 T01750147  RH  083%=      5-min Rain = 0
KFR1 250655Z 19007KT 18/15 A2995 RMK A01 T01750147  RH  084%=      5-min Rain = 0
KFR1 250656Z 19007KT 18/15 A2995 RMK A01 T01750147  RH  084%=      5-min Rain = 0
KFR1 250657Z 19007KT 18/15 A2995 RMK A01 T01750146  RH  084%=      5-min Rain = 0
KFR1 250658Z 21005KT 18/15 A2995 RMK A01 T01750146  RH  083%=      5-min Rain = 0
KFR1 250659Z 20007KT 18/15 A2995 RMK A01 T01750146  RH  083%=      5-min Rain = 0
KFR1 250700Z 21007KT 18/15 A2995 RMK A01 T01750146  RH  083%=      5-min Rain = 0
KFR1 250701Z 21008KT 18/15 A2995 RMK A01 T01760146  RH  083%=      5-min Rain = 0
KFR1 250702Z 21007KT 18/15 A2995 RMK A01 T01760146  RH  082%=      5-min Rain = 0
KFR1 250703Z 22006KT 18/15 A2995 RMK A01 T01770146  RH  082%=      5-min Rain = 0
KFR1 250704Z 20007KT 18/15 A2995 RMK A01 T01770146  RH  082%=      5-min Rain = 0
KFR1 250705Z 20007KT 18/15 A2995 RMK A01 T01770146  RH  082%=      5-min Rain = 0
KFR1 250706Z 20008KT 18/15 A2995 RMK A01 T01770146  RH  082%=      5-min Rain = 0
KFR1 250707Z 21009KT 18/15 A2995 RMK A01 T01770145  RH  082%=      5-min Rain = 0
KFR1 250708Z 20007KT 18/15 A2995 RMK A01 T01780145  RH  081%=      5-min Rain = 0
KFR1 250709Z 21006KT 18/15 A2995 RMK A01 T01780145  RH  081%=      5-min Rain = 0
KFR1 250710Z 21008KT 18/15 A2995 RMK A01 T01770145  RH  082%=      5-min Rain = 0
KFR1 250711Z 20008KT 18/15 A2995 RMK A01 T01770145  RH  082%=      5-min Rain = 0
KFR1 250712Z 20008KT 18/14 A2995 RMK A01 T01780144  RH  081%=      5-min Rain = 0
KFR1 250713Z 20007KT 18/15 A2995 RMK A01 T01790145  RH  080%=      5-min Rain = 0
KFR1 250714Z 20008KT 18/15 A2994 RMK A01 T01790145  RH  080%=      5-min Rain = 0
KFR1 250715Z 20009KT 18/15 A2994 RMK A01 T01790145  RH  080%=      5-min Rain = 0
KFR1 250716Z 20007KT 18/14 A2994 RMK A01 T01790144  RH  080%=      5-min Rain = 0
KFR1 250717Z 19008KT 18/14 A2994 RMK A01 T01790144  RH  080%=      5-min Rain = 0
KFR1 250718Z 19008KT 18/14 A2994 RMK A01 T01790144  RH  080%=      5-min Rain = 0
KFR1 250719Z 18007KT 18/15 A2994 RMK A01 T01790145  RH  080%=      5-min Rain = 0
KFR1 250720Z 18006KT 18/14 A2994 RMK A01 T01790144  RH  080%=      5-min Rain = 0
KFR1 250721Z 18007KT 18/14 A2994 RMK A01 T01790144  RH  080%=      5-min Rain = 0
KFR1 250722Z 18006KT 18/14 A2994 RMK A01 T01790144  RH  080%=      5-min Rain = 0
KFR1 250723Z 19006KT 18/14 A2994 RMK A01 T01790144  RH  080%=      5-min Rain = 0
KFR1 250724Z 19006KT 18/15 A2994 RMK A01 T01790145  RH  080%=      5-min Rain = 0
KFR1 250725Z 19007KT 18/14 A2994 RMK A01 T01790144  RH  080%=      5-min Rain = 0
KFR1 250726Z 19008KT 18/15 A2994 RMK A01 T01790145  RH  080%=      5-min Rain = 0
KFR1 250727Z 20005KT 18/15 A2994 RMK A01 T01790145  RH  080%=      5-min Rain = 0
KFR1 250728Z 20005KT 18/15 A2994 RMK A01 T01790145  RH  080%=      5-min Rain = 0
KFR1 250729Z 20006KT 18/15 A2994 RMK A01 T01790145  RH  081%=      5-min Rain = 0
KFR1 250730Z 20006KT 18/15 A2994 RMK A01 T01790146  RH  081%=      5-min Rain = 0
KFR1 250731Z 19007KT 18/15 A2994 RMK A01 T01790146  RH  081%=      5-min Rain = 0
KFR1 250732Z 18005KT 18/15 A2994 RMK A01 T01790146  RH  081%=      5-min Rain = 0
KFR1 250733Z 18005KT 18/15 A2994 RMK A01 T01780146  RH  082%=      5-min Rain = 0
KFR1 250734Z 17004KT 18/15 A2994 RMK A01 T01770146  RH  082%=      5-min Rain = 0
KFR1 250735Z 18005KT 18/15 A2994 RMK A01 T01770147  RH  083%=      5-min Rain = 0
KFR1 250736Z 18007KT 18/15 A2994 RMK A01 T01770148  RH  083%=      5-min Rain = 0
KFR1 250737Z 19005KT 18/15 A2994 RMK A01 T01770147  RH  083%=      5-min Rain = 0
KFR1 250738Z 20005KT 18/15 A2994 RMK A01 T01770148  RH  083%=      5-min Rain = 0
KFR1 250739Z 20005KT 18/15 A2994 RMK A01 T01770148  RH  083%=      5-min Rain = 0
KFR1 250740Z 22004KT 18/15 A2994 RMK A01 T01770148  RH  083%=      5-min Rain = 0
KFR1 250741Z 22003KT 18/15 A2994 RMK A01 T01770148  RH  083%=      5-min Rain = 0
KFR1 250742Z 22004KT 18/15 A2994 RMK A01 T01760148  RH  084%=      5-min Rain = 0
KFR1 250743Z 21006KT 18/15 A2994 RMK A01 T01760148  RH  084%=      5-min Rain = 0
KFR1 250744Z 21005KT 18/15 A2994 RMK A01 T01750148  RH  084%=      5-min Rain = 0
KFR1 250745Z 20005KT 18/15 A2994 RMK A01 T01750148  RH  084%=      5-min Rain = 0
KFR1 250746Z 20004KT 18/15 A2994 RMK A01 T01760148  RH  084%=      5-min Rain = 0
KFR1 250747Z 19004KT 18/15 A2994 RMK A01 T01760148  RH  084%=      5-min Rain = 0
KFR1 250748Z 19004KT 18/15 A2994 RMK A01 T01760148  RH  084%=      5-min Rain = 0
KFR1 250749Z 21003KT 18/15 A2994 RMK A01 T01760149  RH  084%=      5-min Rain = 0
KFR1 250750Z 20004KT 18/15 A2994 RMK A01 T01760149  RH  084%=      5-min Rain = 0
KFR1 250751Z 20004KT 18/15 A2994 RMK A01 T01750149  RH  084%=      5-min Rain = 0
KFR1 250752Z 19004KT 18/15 A2994 RMK A01 T01750149  RH  084%=      5-min Rain = 0
KFR1 250753Z 20005KT 18/15 A2994 RMK A01 T01760149  RH  085%=      5-min Rain = 0
KFR1 250754Z 19004KT 18/15 A2994 RMK A01 T01760149  RH  085%=      5-min Rain = 0
KFR1 250755Z 20005KT 18/15 A2994 RMK A01 T01750150  RH  085%=      5-min Rain = 0
KFR1 250756Z 20006KT 18/15 A2994 RMK A01 T01760150  RH  085%=      5-min Rain = 0
KFR1 250757Z 20005KT 18/15 A2994 RMK A01 T01760151  RH  085%=      5-min Rain = 0
KFR1 250758Z 21004KT 18/15 A2995 RMK A01 T01760150  RH  085%=      5-min Rain = 0
KFR1 250759Z 20005KT 18/15 A2995 RMK A01 T01770151  RH  085%=      5-min Rain = 0
KFR1 250800Z 20005KT 18/15 A2995 RMK A01 T01770151  RH  085%=      5-min Rain = 0
KFR1 250801Z 19005KT 18/15 A2995 RMK A01 T01770152  RH  085%=      5-min Rain = 0
KFR1 250802Z 21004KT 18/15 A2995 RMK A01 T01770152  RH  085%=      5-min Rain = 0
KFR1 250803Z 19005KT 18/15 A2995 RMK A01 T01760152  RH  086%=      5-min Rain = 0
KFR1 250804Z 19006KT 18/15 A2995 RMK A01 T01760153  RH  086%=      5-min Rain = 0
KFR1 250805Z 21006KT 18/15 A2995 RMK A01 T01760153  RH  086%=      5-min Rain = 0
KFR1 250806Z 20007KT 18/15 A2995 RMK A01 T01770154  RH  086%=      5-min Rain = 0
KFR1 250807Z 20006KT 18/16 A2995 RMK A01 T01770155  RH  087%=      5-min Rain = 0
KFR1 250808Z 20007KT 18/16 A2995 RMK A01 T01780155  RH  087%=      5-min Rain = 0
KFR1 250809Z 20007KT 18/16 A2995 RMK A01 T01780155  RH  087%=      5-min Rain = 0
KFR1 250810Z 19007KT 18/16 A2995 RMK A01 T01780156  RH  087%=      5-min Rain = 0
KFR1 250811Z 19006KT 18/16 A2995 RMK A01 T01780156  RH  087%=      5-min Rain = 0
KFR1 250812Z 19006KT 18/16 A2995 RMK A01 T01780156  RH  087%=      5-min Rain = 0
KFR1 250813Z 19005KT 18/16 A2995 RMK A01 T01780156  RH  087%=      5-min Rain = 0
KFR1 250814Z 18004KT 18/16 A2995 RMK A01 T01780156  RH  087%=      5-min Rain = 0
KFR1 250815Z 19005KT 18/16 A2995 RMK A01 T01780157  RH  087%=      5-min Rain = 0
KFR1 250816Z 19006KT 18/16 A2994 RMK A01 T01780157  RH  088%=      5-min Rain = 0
KFR1 250817Z 19006KT 18/16 A2994 RMK A01 T01780158  RH  088%=      5-min Rain = 0
KFR1 250818Z 19005KT 18/16 A2994 RMK A01 T01790158  RH  088%=      5-min Rain = 0
KFR1 250819Z 19005KT 18/16 A2994 RMK A01 T01790158  RH  088%=      5-min Rain = 0
KFR1 250820Z 18005KT 18/16 A2994 RMK A01 T01790159  RH  088%=      5-min Rain = 0
KFR1 250821Z 18005KT 18/16 A2994 RMK A01 T01800160  RH  088%=      5-min Rain = 0
KFR1 250822Z 17005KT 18/16 A2994 RMK A01 T01800160  RH  088%=      5-min Rain = 0
KFR1 250823Z 18006KT 18/16 A2994 RMK A01 T01810160  RH  088%=      5-min Rain = 0
KFR1 250824Z 18005KT 18/16 A2994 RMK A01 T01810160  RH  088%=      5-min Rain = 0
KFR1 250825Z 17006KT 18/16 A2994 RMK A01 T01810162  RH  088%=      5-min Rain = 0
KFR1 250826Z 18007KT 18/16 A2994 RMK A01 T01820162  RH  089%=      5-min Rain = 0
KFR1 250827Z 17005KT 18/16 A2994 RMK A01 T01830163  RH  088%=      5-min Rain = 0
KFR1 250828Z 18008KT 18/16 A2994 RMK A01 T01830163  RH  088%=      5-min Rain = 0
KFR1 250829Z 17007KT 18/16 A2994 RMK A01 T01830163  RH  088%=      5-min Rain = 0
KFR1 250830Z 17007KT 18/16 A2994 RMK A01 T01840164  RH  088%=      5-min Rain = 0
KFR1 250831Z 18007KT 18/16 A2994 RMK A01 T01840164  RH  088%=      5-min Rain = 0
KFR1 250832Z 17007KT 18/17 A2994 RMK A01 T01840165  RH  089%=      5-min Rain = 0
KFR1 250833Z 17008KT 18/17 A2994 RMK A01 T01840165  RH  089%=      5-min Rain = 0
KFR1 250834Z 17007KT 18/17 A2994 RMK A01 T01840165  RH  089%=      5-min Rain = 0
KFR1 250835Z 18006KT 18/17 A2994 RMK A01 T01840166  RH  089%=      5-min Rain = 0
KFR1 250836Z 18007KT 18/17 A2994 RMK A01 T01840166  RH  089%=      5-min Rain = 0
KFR1 250837Z 18007KT 18/17 A2993 RMK A01 T01840166  RH  089%=      5-min Rain = 0
KFR1 250838Z 18007KT 18/17 A2993 RMK A01 T01840166  RH  089%=      5-min Rain = 0
KFR1 250839Z 18007KT 19/17 A2993 RMK A01 T01850166  RH  089%=      5-min Rain = 0
KFR1 250840Z 18006KT 19/17 A2993 RMK A01 T01850167  RH  089%=      5-min Rain = 0
KFR1 250841Z 18006KT 19/17 A2993 RMK A01 T01850167  RH  089%=      5-min Rain = 0
KFR1 250842Z 18007KT 19/17 A2993 RMK A01 T01850167  RH  089%=      5-min Rain = 0
KFR1 250843Z 19009KT 19/17 A2993 RMK A01 T01850167  RH  089%=      5-min Rain = 0
KFR1 250844Z 18008KT 19/17 A2993 RMK A01 T01860168  RH  089%=      5-min Rain = 0
KFR1 250845Z 18009KT 19/17 A2993 RMK A01 T01860167  RH  089%=      5-min Rain = 0
KFR1 250846Z 17007KT 19/17 A2993 RMK A01 T01860167  RH  089%=      5-min Rain = 0
KFR1 250847Z 18008KT 19/17 A2993 RMK A01 T01860167  RH  089%=      5-min Rain = 0
KFR1 250848Z 18008KT 19/17 A2993 RMK A01 T01860167  RH  089%=      5-min Rain = 0
KFR1 250849Z 18009KT 19/17 A2993 RMK A01 T01860167  RH  089%=      5-min Rain = 0
KFR1 250850Z 17006KT 19/17 A2993 RMK A01 T01870168  RH  089%=      5-min Rain = 0
KFR1 250851Z 18006KT 19/17 A2993 RMK A01 T01870168  RH  089%=      5-min Rain = 0
KFR1 250852Z 18009KT 19/17 A2993 RMK A01 T01870168  RH  089%=      5-min Rain = 0
KFR1 250853Z 18008KT 19/17 A2993 RMK A01 T01870168  RH  089%=      5-min Rain = 0
KFR1 250854Z 18008G13KT 19/17 A2993 RMK A01 T01870168  RH  089%=      5-min Rain = 0
KFR1 250855Z 17010KT 19/17 A2993 RMK A01 T01870168  RH  089%=      5-min Rain = 0
KFR1 250856Z 17010KT 19/17 A2993 RMK A01 T01870168  RH  089%=      5-min Rain = 0
KFR1 250857Z 19009KT 19/17 A2993 RMK A01 T01870168  RH  089%=      5-min Rain = 0
KFR1 250858Z 19010KT 19/17 A2993 RMK A01 T01870168  RH  089%=      5-min Rain = 0
KFR1 250859Z 18011KT 19/17 A2993 RMK A01 T01870168  RH  089%=      5-min Rain = 0
KFR1 250900Z 18010KT 19/17 A2993 RMK A01 T01870168  RH  088%=      5-min Rain = 0
KFR1 250901Z 18007KT 19/17 A2993 RMK A01 T01870168  RH  089%=      5-min Rain = 0
KFR1 250902Z 19008KT 19/17 A2993 RMK A01 T01870169  RH  089%=      5-min Rain = 0
KFR1 250903Z 19008KT 19/17 A2993 RMK A01 T01870169  RH  089%=      5-min Rain = 0
KFR1 250904Z 19011KT 19/17 A2993 RMK A01 T01870168  RH  089%=      5-min Rain = 0
KFR1 250905Z 18009KT 19/17 A2993 RMK A01 T01870168  RH  089%=      5-min Rain = 0
KFR1 250906Z 18012KT 19/17 A2993 RMK A01 T01870168  RH  089%=      5-min Rain = 0
KFR1 250907Z 19008KT 19/17 A2993 RMK A01 T01870168  RH  089%=      5-min Rain = 0
KFR1 250908Z 19008KT 19/17 A2993 RMK A01 T01870168  RH  089%=      5-min Rain = 0
KFR1 250909Z 19007KT 19/17 A2993 RMK A01 T01870169  RH  089%=      5-min Rain = 0
KFR1 250910Z 19010KT 19/17 A2993 RMK A01 T01870169  RH  089%=      5-min Rain = 0
KFR1 250911Z 19007KT 19/17 A2993 RMK A01 T01870169  RH  089%=      5-min Rain = 0
KFR1 250912Z 19009KT 19/17 A2993 RMK A01 T01870168  RH  089%=      5-min Rain = 0
KFR1 250913Z 20009KT 19/17 A2993 RMK A01 T01870168  RH  089%=      5-min Rain = 0
KFR1 250914Z 20007KT 19/17 A2993 RMK A01 T01870168  RH  089%=      5-min Rain = 0
KFR1 250915Z 21007KT 19/17 A2993 RMK A01 T01880169  RH  089%=      5-min Rain = 0
KFR1 250916Z 21007KT 19/17 A2993 RMK A01 T01870169  RH  089%=      5-min Rain = 0
KFR1 250917Z 20007KT 19/17 A2993 RMK A01 T01870169  RH  089%=      5-min Rain = 0
KFR1 250918Z 20011KT 19/17 A2993 RMK A01 T01870169  RH  089%=      5-min Rain = 0
KFR1 250919Z 20010KT 19/17 A2993 RMK A01 T01870169  RH  089%=      5-min Rain = 0
KFR1 250920Z 20009KT 19/17 A2993 RMK A01 T01870169  RH  089%=      5-min Rain = 0
KFR1 250921Z 20009KT 19/17 A2993 RMK A01 T01870169  RH  089%=      5-min Rain = 0
KFR1 250922Z 20008KT 19/17 A2993 RMK A01 T01880169  RH  089%=      5-min Rain = 0
KFR1 250923Z 20009KT 19/17 A2993 RMK A01 T01870169  RH  089%=      5-min Rain = 0
KFR1 250924Z 20008KT 19/17 A2993 RMK A01 T01870169  RH  089%=      5-min Rain = 0
KFR1 250925Z 20007KT 19/17 A2993 RMK A01 T01870169  RH  089%=      5-min Rain = 0
KFR1 250926Z 19010KT 19/17 A2993 RMK A01 T01870169  RH  089%=      5-min Rain = 0
KFR1 250927Z 20008KT 19/17 A2993 RMK A01 T01870169  RH  089%=      5-min Rain = 0
KFR1 250928Z 20011KT 19/17 A2993 RMK A01 T01870170  RH  090%=      5-min Rain = 0
KFR1 250929Z 19009KT 19/17 A2993 RMK A01 T01870170  RH  090%=      5-min Rain = 0
KFR1 250930Z 20008KT 19/17 A2993 RMK A01 T01870170  RH  090%=      5-min Rain = 0
KFR1 250931Z 19010KT 19/17 A2993 RMK A01 T01870170  RH  090%=      5-min Rain = 0
KFR1 250932Z 19009KT 19/17 A2993 RMK A01 T01870170  RH  090%=      5-min Rain = 0
KFR1 250933Z 20009KT 19/17 A2993 RMK A01 T01870170  RH  090%=      5-min Rain = 0
KFR1 250934Z 20010KT 19/17 A2993 RMK A01 T01860170  RH  090%=      5-min Rain = 0
KFR1 250935Z 20010KT 19/17 A2994 RMK A01 T01860170  RH  090%=      5-min Rain = 0
KFR1 250936Z 20009KT 19/17 A2994 RMK A01 T01860170  RH  090%=      5-min Rain = 0
KFR1 250937Z 20008KT 19/17 A2994 RMK A01 T01860170  RH  090%=      5-min Rain = 0
KFR1 250938Z 20008KT 19/17 A2994 RMK A01 T01860170  RH  090%=      5-min Rain = 0
KFR1 250939Z 19010KT 19/17 A2994 RMK A01 T01850170  RH  091%=      5-min Rain = 0
KFR1 250940Z 19012KT 19/17 A2993 RMK A01 T01850170  RH  091%=      5-min Rain = 0
KFR1 250941Z 19011KT 19/17 A2993 RMK A01 T01850170  RH  091%=      5-min Rain = 0
KFR1 250942Z 19010KT 19/17 A2994 RMK A01 T01850170  RH  091%=      5-min Rain = 0
KFR1 250943Z 19010KT 19/17 A2993 RMK A01 T01850170  RH  091%=      5-min Rain = 0
KFR1 250944Z 18012KT 19/17 A2993 RMK A01 T01850170  RH  091%=      5-min Rain = 0
KFR1 250945Z 18011KT 19/17 A2993 RMK A01 T01850170  RH  091%=      5-min Rain = 0
KFR1 250946Z 19010KT 18/17 A2993 RMK A01 T01840170  RH  091%=      5-min Rain = 0
KFR1 250947Z 19008KT 18/17 A2993 RMK A01 T01840170  RH  091%=      5-min Rain = 0
KFR1 250948Z 19011KT 18/17 A2993 RMK A01 T01840170  RH  092%=      5-min Rain = 0
KFR1 250949Z 18012KT 18/17 A2993 RMK A01 T01840170  RH  092%=      5-min Rain = 0
KFR1 250950Z 18011KT 18/17 A2993 RMK A01 T01840170  RH  092%=      5-min Rain = 0
KFR1 250951Z 18012KT 18/17 A2993 RMK A01 T01840170  RH  092%=      5-min Rain = 0
KFR1 250952Z 18012KT 18/17 A2993 RMK A01 T01840170  RH  092%=      5-min Rain = 0
KFR1 250953Z 18010KT 18/17 A2993 RMK A01 T01840170  RH  092%=      5-min Rain = 0
KFR1 250954Z 18011KT 18/17 A2993 RMK A01 T01840171  RH  092%=      5-min Rain = 0
KFR1 250955Z 18012KT 18/17 A2993 RMK A01 T01840170  RH  092%=      5-min Rain = 0
KFR1 250956Z 18015KT 18/17 A2993 RMK A01 T01840171  RH  092%=      5-min Rain = 0
KFR1 250957Z 18012G17KT 19/17 A2993 RMK A01 T01850171  RH  092%=      5-min Rain = 0
KFR1 250958Z 17011G16KT 19/17 A2993 RMK A01 T01850171  RH  091%=      5-min Rain = 0
KFR1 250959Z 18015KT 19/17 A2993 RMK A01 T01850171  RH  092%=      5-min Rain = 0
KFR1 251000Z 18014G19KT 19/17 A2993 RMK A01 T01850171  RH  092%=      5-min Rain = 0
KFR1 251001Z 18014KT 19/17 A2993 RMK A01 T01850171  RH  092%=      5-min Rain = 0
KFR1 251002Z 18012KT 19/17 A2993 RMK A01 T01850171  RH  092%=      5-min Rain = 0
KFR1 251003Z 18012KT 19/17 A2993 RMK A01 T01850171  RH  092%=      5-min Rain = 0
KFR1 251004Z 18014KT 19/17 A2993 RMK A01 T01850171  RH  092%=      5-min Rain = 0
KFR1 251005Z 18015KT 19/17 A2993 RMK A01 T01850171  RH  092%=      5-min Rain = 0
KFR1 251006Z 18016KT 19/17 A2993 RMK A01 T01850171  RH  092%=      5-min Rain = 0
KFR1 251007Z 19017KT 19/17 A2993 RMK A01 T01850171  RH  092%=      5-min Rain = 0
KFR1 251008Z 18013G19KT 19/17 A2993 RMK A01 T01860172  RH  091%=      5-min Rain = 0
KFR1 251009Z 18012KT 19/17 A2993 RMK A01 T01850171  RH  091%=      5-min Rain = 0
KFR1 251010Z 18011KT 19/17 A2993 RMK A01 T01850172  RH  092%=      5-min Rain = 0
KFR1 251011Z 18013KT 19/17 A2993 RMK A01 T01850171  RH  092%=      5-min Rain = 0
KFR1 251012Z 18014G20KT 19/17 A2993 RMK A01 T01850172  RH  092%=      5-min Rain = 0
KFR1 251013Z 19014KT 19/17 A2993 RMK A01 T01850172  RH  092%=      5-min Rain = 0
KFR1 251014Z 19013KT 19/17 A2993 RMK A01 T01850171  RH  092%=      5-min Rain = 0
KFR1 251015Z 19015KT 19/17 A2993 RMK A01 T01850171  RH  092%=      5-min Rain = 0
KFR1 251016Z 19012KT 19/17 A2993 RMK A01 T01850171  RH  092%=      5-min Rain = 0
KFR1 251017Z 19015KT 19/17 A2993 RMK A01 T01850171  RH  092%=      5-min Rain = 0
KFR1 251018Z 18016KT 19/17 A2993 RMK A01 T01850171  RH  092%=      5-min Rain = 0
KFR1 251019Z 18014KT 19/17 A2993 RMK A01 T01850171  RH  092%=      5-min Rain = 0
KFR1 251020Z 19012G17KT 18/17 A2993 RMK A01 T01840171  RH  092%=      5-min Rain = 0
KFR1 251021Z 19012KT 19/17 A2993 RMK A01 T01850171  RH  092%=      5-min Rain = 0
KFR1 251022Z 19014KT 19/17 A2993 RMK A01 T01850171  RH  092%=      5-min Rain = 0
KFR1 251023Z 19011KT 19/17 A2993 RMK A01 T01850172  RH  092%=      5-min Rain = 0
KFR1 251024Z 19010KT 18/17 A2994 RMK A01 T01840171  RH  092%=      5-min Rain = 0
KFR1 251025Z 19013KT 18/17 A2994 RMK A01 T01840171  RH  092%=      5-min Rain = 0
KFR1 251026Z 19012KT 18/17 A2994 RMK A01 T01840171  RH  092%=      5-min Rain = 0
KFR1 251027Z 19011KT 18/17 A2994 RMK A01 T01840171  RH  092%=      5-min Rain = 0
KFR1 251028Z 19012KT 18/17 A2994 RMK A01 T01840171  RH  092%=      5-min Rain = 0
KFR1 251029Z 19012G17KT 18/17 A2994 RMK A01 T01840171  RH  092%=      5-min Rain = 0
KFR1 251030Z 19010KT 18/17 A2994 RMK A01 T01840172  RH  092%=      5-min Rain = 0
KFR1 251031Z 20013KT 18/17 A2994 RMK A01 T01840171  RH  092%=      5-min Rain = 0
KFR1 251032Z 19012KT 18/17 A2994 RMK A01 T01840172  RH  093%=      5-min Rain = 0
KFR1 251033Z 19009KT 18/17 A2994 RMK A01 T01840171  RH  092%=      5-min Rain = 0
KFR1 251034Z 20011KT 18/17 A2994 RMK A01 T01830171  RH  093%=      5-min Rain = 0
KFR1 251035Z 20011KT 18/17 A2994 RMK A01 T01840171  RH  093%=      5-min Rain = 0
KFR1 251036Z 20009KT 18/17 A2994 RMK A01 T01840171  RH  092%=      5-min Rain = 0
KFR1 251037Z 20012KT 18/17 A2994 RMK A01 T01840172  RH  092%=      5-min Rain = 0
KFR1 251038Z 20009KT 18/17 A2994 RMK A01 T01840172  RH  092%=      5-min Rain = 0
KFR1 251039Z 20008KT 18/17 A2994 RMK A01 T01840172  RH  092%=      5-min Rain = 0
KFR1 251040Z 20010KT 18/17 A2994 RMK A01 T01840172  RH  092%=      5-min Rain = 0
KFR1 251041Z 21009KT 18/17 A2994 RMK A01 T01840172  RH  092%=      5-min Rain = 0
KFR1 251042Z 20009KT 18/17 A2995 RMK A01 T01840172  RH  092%=      5-min Rain = 0
KFR1 251043Z 20008KT 18/17 A2995 RMK A01 T01840172  RH  092%=      5-min Rain = 0
KFR1 251044Z 21010KT 19/17 A2995 RMK A01 T01850172  RH  092%=      5-min Rain = 0
KFR1 251045Z 19009KT 19/17 A2995 RMK A01 T01850172  RH  092%=      5-min Rain = 0
KFR1 251046Z 21009KT 18/17 A2995 RMK A01 T01840172  RH  092%=      5-min Rain = 0
KFR1 251047Z 20011KT 19/17 A2995 RMK A01 T01850172  RH  093%=      5-min Rain = 0
KFR1 251048Z 21010KT 19/17 A2995 RMK A01 T01850172  RH  093%=      5-min Rain = 0
KFR1 251049Z 21009KT 19/17 A2995 RMK A01 T01850172  RH  092%=      5-min Rain = 0
KFR1 251050Z 21008KT 19/17 A2995 RMK A01 T01850172  RH  092%=      5-min Rain = 0
KFR1 251051Z 21009KT 19/17 A2995 RMK A01 T01850173  RH  092%=      5-min Rain = 0
KFR1 251052Z 20008KT 19/17 A2995 RMK A01 T01850173  RH  092%=      5-min Rain = 0
KFR1 251053Z 21010KT 19/17 A2995 RMK A01 T01850173  RH  092%=      5-min Rain = 0
KFR1 251054Z 21010KT 19/17 A2995 RMK A01 T01850173  RH  092%=      5-min Rain = 0
KFR1 251055Z 21010KT 19/17 A2995 RMK A01 T01860173  RH  092%=      5-min Rain = 0
KFR1 251056Z 21011KT 19/17 A2995 RMK A01 T01860173  RH  092%=      5-min Rain = 0
KFR1 251057Z 21011KT 19/17 A2995 RMK A01 T01860173  RH  092%=      5-min Rain = 0
KFR1 251058Z 21014KT 19/17 A2995 RMK A01 T01860173  RH  092%=      5-min Rain = 0
KFR1 251059Z 21012KT 19/17 A2995 RMK A01 T01870173  RH  092%=      5-min Rain = 0
KFR1 251100Z 21011KT 19/17 A2995 RMK A01 T01870173  RH  092%=      5-min Rain = 0
KFR1 251101Z 21011KT 19/17 A2995 RMK A01 T01870173  RH  092%=      5-min Rain = 0
KFR1 251102Z 22011KT 19/17 A2995 RMK A01 T01870173  RH  092%=      5-min Rain = 0
KFR1 251103Z 21011KT 19/17 A2995 RMK A01 T01870173  RH  092%=      5-min Rain = 0
KFR1 251104Z 21010KT 19/17 A2995 RMK A01 T01870173  RH  092%=      5-min Rain = 0
KFR1 251105Z 21011KT 19/17 A2995 RMK A01 T01880174  RH  092%=      5-min Rain = 0
KFR1 251106Z 20010KT 19/17 A2995 RMK A01 T01870174  RH  092%=      5-min Rain = 0
KFR1 251107Z 21010KT 19/17 A2995 RMK A01 T01870173  RH  092%=      5-min Rain = 0
KFR1 251108Z 21011KT 19/17 A2995 RMK A01 T01870174  RH  092%=      5-min Rain = 0
KFR1 251109Z 22013KT 19/17 A2995 RMK A01 T01870173  RH  092%=      5-min Rain = 0
KFR1 251110Z 21013KT 19/17 A2995 RMK A01 T01880174  RH  091%=      5-min Rain = 0
KFR1 251111Z 21012KT 19/17 A2995 RMK A01 T01880173  RH  091%=      5-min Rain = 0
KFR1 251112Z 21014KT 19/17 A2995 RMK A01 T01880173  RH  091%=      5-min Rain = 0
KFR1 251113Z 21012KT 19/17 A2995 RMK A01 T01880173  RH  091%=      5-min Rain = 0
KFR1 251114Z 20010KT 19/17 A2995 RMK A01 T01880174  RH  091%=      5-min Rain = 0
KFR1 251115Z 21011KT 19/17 A2995 RMK A01 T01880174  RH  091%=      5-min Rain = 0
KFR1 251116Z 21011KT 19/17 A2995 RMK A01 T01880174  RH  091%=      5-min Rain = 0
KFR1 251117Z 20014KT 19/17 A2995 RMK A01 T01880174  RH  091%=      5-min Rain = 0
KFR1 251118Z 21010KT 19/17 A2995 RMK A01 T01880174  RH  091%=      5-min Rain = 0
KFR1 251119Z 21010KT 19/17 A2995 RMK A01 T01880174  RH  091%=      5-min Rain = 0
KFR1 251120Z 21012KT 19/17 A2995 RMK A01 T01880174  RH  091%=      5-min Rain = 0
KFR1 251121Z 21012KT 19/17 A2995 RMK A01 T01880174  RH  091%=      5-min Rain = 0
KFR1 251122Z 21012KT 19/17 A2995 RMK A01 T01880174  RH  091%=      5-min Rain = 0
KFR1 251123Z 21013KT 19/17 A2995 RMK A01 T01880174  RH  091%=      5-min Rain = 0
KFR1 251124Z 20013KT 19/17 A2995 RMK A01 T01880174  RH  091%=      5-min Rain = 0
KFR1 251125Z 21012KT 19/17 A2995 RMK A01 T01880174  RH  091%=      5-min Rain = 0
KFR1 251126Z 20013KT 19/17 A2995 RMK A01 T01880174  RH  091%=      5-min Rain = 0
KFR1 251127Z 21012KT 19/17 A2995 RMK A01 T01880173  RH  091%=      5-min Rain = 0
KFR1 251128Z 21011KT 19/17 A2995 RMK A01 T01880174  RH  091%=      5-min Rain = 0
KFR1 251129Z 21009KT 19/17 A2995 RMK A01 T01880174  RH  091%=      5-min Rain = 0
KFR1 251130Z 21014KT 19/17 A2995 RMK A01 T01880174  RH  091%=      5-min Rain = 0
KFR1 251131Z 21013KT 19/17 A2996 RMK A01 T01880174  RH  091%=      5-min Rain = 0
KFR1 251132Z 20010KT 19/17 A2996 RMK A01 T01880174  RH  091%=      5-min Rain = 0
KFR1 251133Z 20009KT 19/17 A2996 RMK A01 T01880174  RH  091%=      5-min Rain = 0
KFR1 251134Z 21013KT 19/17 A2996 RMK A01 T01880174  RH  091%=      5-min Rain = 0
KFR1 251135Z 21012KT 19/17 A2996 RMK A01 T01880174  RH  091%=      5-min Rain = 0
KFR1 251136Z 21010KT 19/17 A2996 RMK A01 T01880174  RH  091%=      5-min Rain = 0
KFR1 251137Z 20010KT 19/17 A2996 RMK A01 T01890174  RH  091%=      5-min Rain = 0
KFR1 251138Z 21011KT 19/17 A2996 RMK A01 T01890174  RH  091%=      5-min Rain = 0
KFR1 251139Z 21011G17KT 19/17 A2996 RMK A01 T01890174  RH  091%=      5-min Rain = 0
KFR1 251140Z 20012KT 19/17 A2996 RMK A01 T01890174  RH  091%=      5-min Rain = 0
KFR1 251141Z 20014G19KT 19/17 A2996 RMK A01 T01890174  RH  091%=      5-min Rain = 0
KFR1 251142Z 20011KT 19/17 A2996 RMK A01 T01890174  RH  091%=      5-min Rain = 0
KFR1 251143Z 21010KT 19/17 A2996 RMK A01 T01890174  RH  091%=      5-min Rain = 0
KFR1 251144Z 21012G17KT 19/17 A2996 RMK A01 T01890174  RH  091%=      5-min Rain = 0
KFR1 251145Z 21012KT 19/17 A2996 RMK A01 T01890174  RH  091%=      5-min Rain = 0
KFR1 251146Z 21012KT 19/17 A2996 RMK A01 T01890174  RH  091%=      5-min Rain = 0
KFR1 251147Z 20010KT 19/17 A2996 RMK A01 T01890174  RH  091%=      5-min Rain = 0
KFR1 251148Z 21014KT 19/17 A2996 RMK A01 T01890174  RH  091%=      5-min Rain = 0
KFR1 251149Z 21013KT 19/17 A2996 RMK A01 T01890174  RH  091%=      5-min Rain = 0
KFR1 251150Z 21012KT 19/17 A2996 RMK A01 T01890174  RH  091%=      5-min Rain = 0
KFR1 251151Z 20013KT 19/17 A2996 RMK A01 T01890174  RH  091%=      5-min Rain = 0
KFR1 251152Z 20012KT 19/17 A2996 RMK A01 T01890174  RH  091%=      5-min Rain = 0
KFR1 251153Z 20010G15KT 19/18 A2997 RMK A01 T01900175  RH  091%=      5-min Rain = 0
KFR1 251154Z 21011G16KT 19/18 A2996 RMK A01 T01890175  RH  091%=      5-min Rain = 0
KFR1 251155Z 21014KT 19/18 A2997 RMK A01 T01900175  RH  091%=      5-min Rain = 0
KFR1 251156Z 21013KT 19/18 A2997 RMK A01 T01900175  RH  091%=      5-min Rain = 0
KFR1 251157Z 21014KT 19/18 A2997 RMK A01 T01900175  RH  091%=      5-min Rain = 0
KFR1 251158Z 21012KT 19/18 A2997 RMK A01 T01900175  RH  091%=      5-min Rain = 0
KFR1 251159Z 21013KT 19/18 A2997 RMK A01 T01890175  RH  091%=      5-min Rain = 0
KFR1 251200Z 21014G19KT 19/18 A2997 RMK A01 T01900175  RH  091%=      5-min Rain = 0
KFR1 251201Z 20014KT 19/18 A2997 RMK A01 T01900175  RH  091%=      5-min Rain = 0
KFR1 251202Z 21014KT 19/18 A2997 RMK A01 T01900175  RH  091%=      5-min Rain = 0
KFR1 251203Z 21013KT 19/18 A2997 RMK A01 T01900175  RH  091%=      5-min Rain = 0
KFR1 251204Z 21013KT 19/18 A2997 RMK A01 T01900175  RH  091%=      5-min Rain = 0
KFR1 251205Z 21011KT 19/18 A2997 RMK A01 T01900175  RH  091%=      5-min Rain = 0
KFR1 251206Z 21014KT 19/18 A2997 RMK A01 T01900175  RH  091%=      5-min Rain = 0
KFR1 251207Z 21013KT 19/18 A2997 RMK A01 T01900175  RH  091%=      5-min Rain = 0
KFR1 251208Z 21016KT 19/18 A2997 RMK A01 T01900175  RH  091%=      5-min Rain = 0
KFR1 251209Z 20016KT 19/18 A2997 RMK A01 T01900175  RH  091%=      5-min Rain = 0
KFR1 251210Z 21013KT 19/18 A2997 RMK A01 T01900176  RH  091%=      5-min Rain = 0
KFR1 251211Z 21016G23KT 19/18 A2997 RMK A01 T01900176  RH  091%=      5-min Rain = 0
KFR1 251212Z 21018KT 19/18 A2997 RMK A01 T01900175  RH  091%=      5-min Rain = 0
KFR1 251213Z 21015KT 19/18 A2997 RMK A01 T01900175  RH  091%=      5-min Rain = 0
KFR1 251214Z 20014G19KT 19/18 A2997 RMK A01 T01900176  RH  091%=      5-min Rain = 0
KFR1 251215Z 20011KT 19/18 A2997 RMK A01 T01900176  RH  091%=      5-min Rain = 0
KFR1 251216Z 21016G22KT 19/18 A2997 RMK A01 T01900176  RH  091%=      5-min Rain = 0
KFR1 251217Z 21014KT 19/18 A2997 RMK A01 T01900176  RH  091%=      5-min Rain = 0
KFR1 251218Z 21017KT 19/18 A2997 RMK A01 T01900176  RH  091%=      5-min Rain = 0
KFR1 251219Z 21018KT 19/18 A2997 RMK A01 T01900176  RH  091%=      5-min Rain = 0
KFR1 251220Z 20015KT 19/18 A2997 RMK A01 T01900176  RH  091%=      5-min Rain = 0
KFR1 251221Z 21015KT 19/18 A2997 RMK A01 T01900176  RH  091%=      5-min Rain = 0
KFR1 251222Z 20014KT 19/18 A2997 RMK A01 T01900176  RH  091%=      5-min Rain = 0
KFR1 251223Z 20014KT 19/18 A2997 RMK A01 T01900176  RH  092%=      5-min Rain = 0
KFR1 251224Z 21013KT 19/18 A2997 RMK A01 T01900176  RH  092%=      5-min Rain = 0
KFR1 251225Z 21014KT 19/18 A2997 RMK A01 T01900176  RH  092%=      5-min Rain = 0
KFR1 251226Z 21014KT 19/18 A2997 RMK A01 T01900176  RH  092%=      5-min Rain = 0
KFR1 251227Z 20015KT 19/18 A2997 RMK A01 T01900176  RH  092%=      5-min Rain = 0
KFR1 251228Z 21014G22KT 19/18 A2997 RMK A01 T01900176  RH  092%=      5-min Rain = 0
KFR1 251229Z 21018KT 19/18 A2997 RMK A01 T01890176  RH  092%=      5-min Rain = 0
KFR1 251230Z 20016KT 19/18 A2997 RMK A01 T01900176  RH  092%=      5-min Rain = 0
KFR1 251231Z 21014KT 19/18 A2997 RMK A01 T01900176  RH  092%=      5-min Rain = 0
KFR1 251232Z 21016KT 19/18 A2997 RMK A01 T01900176  RH  092%=      5-min Rain = 0
KFR1 251233Z 21017KT 19/18 A2997 RMK A01 T01900176  RH  092%=      5-min Rain = 0
KFR1 251234Z 21016KT 19/18 A2997 RMK A01 T01900176  RH  092%=      5-min Rain = 0
KFR1 251235Z 21017KT 19/18 A2997 RMK A01 T01900176  RH  092%=      5-min Rain = 0
KFR1 251236Z 21013KT 19/18 A2997 RMK A01 T01900176  RH  092%=      5-min Rain = 0
KFR1 251237Z 21016KT 19/18 A2997 RMK A01 T01900176  RH  092%=      5-min Rain = 0
KFR1 251238Z 21015KT 19/18 A2997 RMK A01 T01900176  RH  092%=      5-min Rain = 0
KFR1 251239Z 20013KT 19/18 A2997 RMK A01 T01900176  RH  092%=      5-min Rain = 0
KFR1 251240Z 20016KT 19/18 A2997 RMK A01 T01900177  RH  092%=      5-min Rain = 0
KFR1 251241Z 21018KT 19/18 A2997 RMK A01 T01900176  RH  092%=      5-min Rain = 0
KFR1 251242Z 20017KT 19/18 A2997 RMK A01 T01900176  RH  092%=      5-min Rain = 0
KFR1 251243Z 21013KT 19/18 A2997 RMK A01 T01900176  RH  092%=      5-min Rain = 0
KFR1 251244Z 20011G16KT 19/18 A2997 RMK A01 T01900177  RH  092%=      5-min Rain = 0
KFR1 251245Z 21014G19KT 19/18 A2997 RMK A01 T01900177  RH  092%=      5-min Rain = 0
KFR1 251246Z 21013KT 19/18 A2997 RMK A01 T01900177  RH  092%=      5-min Rain = 0
KFR1 251247Z 21015KT 19/18 A2997 RMK A01 T01900177  RH  092%=      5-min Rain = 0
KFR1 251248Z 20014KT 19/18 A2997 RMK A01 T01900177  RH  092%=      5-min Rain = 0
KFR1 251249Z 21015KT 19/18 A2997 RMK A01 T01900177  RH  092%=      5-min Rain = 0
KFR1 251250Z 21016KT 19/18 A2997 RMK A01 T01900177  RH  092%=      5-min Rain = 0
KFR1 251251Z 20017G22KT 19/18 A2997 RMK A01 T01900177  RH  092%=      5-min Rain = 0
KFR1 251252Z 21013KT 19/18 A2997 RMK A01 T01910177  RH  092%=      5-min Rain = 0
KFR1 251253Z 20014KT 19/18 A2997 RMK A01 T01910178  RH  092%=      5-min Rain = 0
KFR1 251254Z 21014KT 19/18 A2997 RMK A01 T01910177  RH  092%=      5-min Rain = 0
KFR1 251255Z 21015KT 19/18 A2997 RMK A01 T01910178  RH  092%=      5-min Rain = 0
KFR1 251256Z 21016KT 19/18 A2997 RMK A01 T01920178  RH  092%=      5-min Rain = 0
KFR1 251257Z 21013G18KT 19/18 A2997 RMK A01 T01920177  RH  091%=      5-min Rain = 0
KFR1 251258Z 21013KT 19/18 A2998 RMK A01 T01920178  RH  092%=      5-min Rain = 0
KFR1 251259Z 21011KT 19/18 A2997 RMK A01 T01920178  RH  092%=      5-min Rain = 0
KFR1 251300Z 21015KT 19/18 A2998 RMK A01 T01920178  RH  092%=      5-min Rain = 0
KFR1 251301Z 20013KT 19/18 A2997 RMK A01 T01930178  RH  091%=      5-min Rain = 0
KFR1 251302Z 21015KT 19/18 A2997 RMK A01 T01930178  RH  091%=      5-min Rain = 0
KFR1 251303Z 21015KT 19/18 A2997 RMK A01 T01930178  RH  091%=      5-min Rain = 0
KFR1 251304Z 21013KT 19/18 A2997 RMK A01 T01930179  RH  091%=      5-min Rain = 0
KFR1 251305Z 21014KT 19/18 A2997 RMK A01 T01940179  RH  091%=      5-min Rain = 0
KFR1 251306Z 21013KT 19/18 A2997 RMK A01 T01940179  RH  091%=      5-min Rain = 0
KFR1 251307Z 20015KT 19/18 A2997 RMK A01 T01940179  RH  091%=      5-min Rain = 0
KFR1 251308Z 20012KT 20/18 A2997 RMK A01 T01950179  RH  091%=      5-min Rain = 0
KFR1 251309Z 21012G19KT 20/18 A2998 RMK A01 T01950180  RH  091%=      5-min Rain = 0
KFR1 251310Z 21014G19KT 20/18 A2997 RMK A01 T01950179  RH  091%=      5-min Rain = 0
KFR1 251311Z 21012KT 20/18 A2998 RMK A01 T01950179  RH  091%=      5-min Rain = 0
KFR1 251312Z 21014KT 20/18 A2998 RMK A01 T01960180  RH  091%=      5-min Rain = 0
KFR1 251313Z 21013KT 20/18 A2998 RMK A01 T01960180  RH  090%=      5-min Rain = 0
KFR1 251314Z 21014KT 20/18 A2998 RMK A01 T01960180  RH  090%=      5-min Rain = 0
KFR1 251315Z 21017KT 20/18 A2998 RMK A01 T01960180  RH  090%=      5-min Rain = 0
KFR1 251316Z 21015KT 20/18 A2998 RMK A01 T01960180  RH  090%=      5-min Rain = 0
KFR1 251317Z 22013KT 20/18 A2998 RMK A01 T01970180  RH  090%=      5-min Rain = 0
KFR1 251318Z 21014G19KT 20/18 A2998 RMK A01 T01960180  RH  090%=      5-min Rain = 0
KFR1 251319Z 21015G20KT 20/18 A2998 RMK A01 T01970180  RH  090%=      5-min Rain = 0
KFR1 251320Z 21013KT 20/18 A2998 RMK A01 T01970180  RH  090%=      5-min Rain = 0
KFR1 251321Z 21015KT 20/18 A2998 RMK A01 T01970180  RH  090%=      5-min Rain = 0
KFR1 251322Z 21017KT 20/18 A2998 RMK A01 T01970180  RH  090%=      5-min Rain = 0
KFR1 251323Z 21015KT 20/18 A2998 RMK A01 T01980181  RH  090%=      5-min Rain = 0
KFR1 251324Z 21017KT 20/18 A2998 RMK A01 T01980181  RH  089%=      5-min Rain = 0
KFR1 251325Z 21015KT 20/18 A2998 RMK A01 T01980180  RH  089%=      5-min Rain = 0
KFR1 251326Z 21013KT 20/18 A2998 RMK A01 T01990181  RH  089%=      5-min Rain = 0
KFR1 251327Z 22017KT 20/18 A2998 RMK A01 T01990181  RH  089%=      5-min Rain = 0
KFR1 251328Z 21014KT 20/18 A2998 RMK A01 T01990181  RH  089%=      5-min Rain = 0
KFR1 251329Z 21016G21KT 20/18 A2998 RMK A01 T02000181  RH  089%=      5-min Rain = 0
KFR1 251330Z 21017KT 20/18 A2998 RMK A01 T02000181  RH  089%=      5-min Rain = 0
KFR1 251331Z 21019KT 20/18 A2998 RMK A01 T02000181  RH  089%=      5-min Rain = 0
KFR1 251332Z 21019KT 20/18 A2998 RMK A01 T02000181  RH  089%=      5-min Rain = 0
KFR1 251333Z 21014G19KT 20/18 A2998 RMK A01 T02010181  RH  088%=      5-min Rain = 0
KFR1 251334Z 21014G19KT 20/18 A2998 RMK A01 T02010181  RH  089%=      5-min Rain = 0
KFR1 251335Z 21016G23KT 20/18 A2998 RMK A01 T02010182  RH  089%=      5-min Rain = 0
KFR1 251336Z 21017KT 20/18 A2998 RMK A01 T02020181  RH  088%=      5-min Rain = 0
KFR1 251337Z 21017KT 20/18 A2998 RMK A01 T02020182  RH  088%=      5-min Rain = 0
KFR1 251338Z 21019G24KT 20/18 A2998 RMK A01 T02020182  RH  088%=      5-min Rain = 0
KFR1 251339Z 21017G22KT 20/18 A2998 RMK A01 T02030182  RH  088%=      5-min Rain = 0
KFR1 251340Z 21018KT 20/18 A2998 RMK A01 T02030182  RH  088%=      5-min Rain = 0
KFR1 251341Z 21015KT 20/18 A2998 RMK A01 T02030182  RH  088%=      5-min Rain = 0
KFR1 251342Z 21017KT 20/18 A2998 RMK A01 T02030182  RH  088%=      5-min Rain = 0
KFR1 251343Z 21017KT 20/18 A2998 RMK A01 T02030182  RH  088%=      5-min Rain = 0
KFR1 251344Z 21017KT 20/18 A2998 RMK A01 T02030182  RH  088%=      5-min Rain = 0
KFR1 251345Z 21017KT 20/18 A2998 RMK A01 T02030182  RH  088%=      5-min Rain = 0
KFR1 251346Z 20017KT 20/18 A2998 RMK A01 T02030182  RH  087%=      5-min Rain = 0
KFR1 251347Z 21013G18KT 20/18 A2998 RMK A01 T02040183  RH  088%=      5-min Rain = 0
KFR1 251348Z 21016G21KT 20/18 A2998 RMK A01 T02040183  RH  087%=      5-min Rain = 0
KFR1 251349Z 21016KT 20/18 A2998 RMK A01 T02040182  RH  087%=      5-min Rain = 0
KFR1 251350Z 21016KT 21/18 A2998 RMK A01 T02050182  RH  087%=      5-min Rain = 0
KFR1 251351Z 21017KT 21/18 A2998 RMK A01 T02050183  RH  087%=      5-min Rain = 0
KFR1 251352Z 21016G21KT 21/18 A2998 RMK A01 T02050183  RH  087%=      5-min Rain = 0
KFR1 251353Z 21014KT 21/18 A2998 RMK A01 T02050183  RH  087%=      5-min Rain = 0
KFR1 251354Z 21016KT 21/18 A2998 RMK A01 T02060183  RH  087%=      5-min Rain = 0
KFR1 251355Z 21014KT 21/18 A2998 RMK A01 T02060184  RH  087%=      5-min Rain = 0
KFR1 251356Z 20018G23KT 21/18 A2998 RMK A01 T02070184  RH  087%=      5-min Rain = 0
KFR1 251357Z 21016G21KT 21/18 A2998 RMK A01 T02070183  RH  086%=      5-min Rain = 0
KFR1 251358Z 20014KT 21/18 A2998 RMK A01 T02070183  RH  087%=      5-min Rain = 0
KFR1 251359Z 21017KT 21/18 A2998 RMK A01 T02070184  RH  086%=      5-min Rain = 0
KFR1 251400Z 20019KT 21/18 A2998 RMK A01 T02070184  RH  086%=      5-min Rain = 0
KFR1 251401Z 21017G23KT 21/18 A2998 RMK A01 T02070183  RH  086%=      5-min Rain = 0
KFR1 251402Z 21016KT 21/18 A2998 RMK A01 T02070183  RH  086%=      5-min Rain = 0
KFR1 251403Z 21018KT 21/18 A2998 RMK A01 T02070183  RH  086%=      5-min Rain = 0
KFR1 251404Z 21018KT 21/18 A2998 RMK A01 T02070183  RH  086%=      5-min Rain = 0
KFR1 251405Z 21018KT 21/18 A2998 RMK A01 T02070183  RH  086%=      5-min Rain = 0
KFR1 251406Z 20021G26KT 21/18 A2998 RMK A01 T02080183  RH  085%=      5-min Rain = 0
KFR1 251407Z 21021KT 21/18 A2998 RMK A01 T02080183  RH  085%=      5-min Rain = 0
KFR1 251408Z 21019KT 21/18 A2998 RMK A01 T02090183  RH  085%=      5-min Rain = 0
KFR1 251409Z 21018G23KT 21/18 A2998 RMK A01 T02090183  RH  085%=      5-min Rain = 0
KFR1 251410Z 20017G24KT 21/18 A2998 RMK A01 T02100183  RH  085%=      5-min Rain = 0
KFR1 251411Z 20015KT 21/18 A2998 RMK A01 T02100184  RH  085%=      5-min Rain = 0
KFR1 251412Z 21017KT 21/18 A2998 RMK A01 T02110184  RH  085%=      5-min Rain = 0
KFR1 251413Z 21021KT 21/18 A2998 RMK A01 T02110184  RH  084%=      5-min Rain = 0
KFR1 251414Z 20017G23KT 21/18 A2998 RMK A01 T02120184  RH  084%=      5-min Rain = 0
KFR1 251415Z 21016G21KT 21/19 A2998 RMK A01 T02120185  RH  085%=      5-min Rain = 0
KFR1 251416Z 21023KT 21/18 A2998 RMK A01 T02120184  RH  084%=      5-min Rain = 0
KFR1 251417Z 21020G25KT 21/18 A2998 RMK A01 T02120184  RH  084%=      5-min Rain = 0
KFR1 251418Z 21020G25KT 21/18 A2998 RMK A01 T02120184  RH  084%=      5-min Rain = 0
KFR1 251419Z 21017G22KT 21/18 A2998 RMK A01 T02130184  RH  084%=      5-min Rain = 0
KFR1 251420Z 21017KT 21/19 A2998 RMK A01 T02130185  RH  084%=      5-min Rain = 0
KFR1 251421Z 21019KT 21/19 A2998 RMK A01 T02130185  RH  084%=      5-min Rain = 0
KFR1 251422Z 20017G23KT 21/19 A2998 RMK A01 T02130185  RH  084%=      5-min Rain = 0
KFR1 251423Z 21017G25KT 21/19 A2998 RMK A01 T02130185  RH  084%=      5-min Rain = 0
KFR1 251424Z 21022KT 21/18 A2998 RMK A01 T02130184  RH  083%=      5-min Rain = 0
KFR1 251425Z 21021KT 21/18 A2998 RMK A01 T02130184  RH  084%=      5-min Rain = 0
KFR1 251426Z 21020G26KT 21/18 A2998 RMK A01 T02130184  RH  084%=      5-min Rain = 0
KFR1 251427Z 20020G26KT 21/18 A2998 RMK A01 T02130184  RH  084%=      5-min Rain = 0
KFR1 251428Z 20017G23KT 21/18 A2998 RMK A01 T02130184  RH  084%=      5-min Rain = 0
KFR1 251429Z 21019KT 21/19 A2998 RMK A01 T02140185  RH  083%=      5-min Rain = 0
KFR1 251430Z 21021G27KT 21/18 A2998 RMK A01 T02140184  RH  083%=      5-min Rain = 0
KFR1 251431Z 21018KT 21/18 A2998 RMK A01 T02140184  RH  083%=      5-min Rain = 0
KFR1 251432Z 21019KT 22/19 A2999 RMK A01 T02150185  RH  083%=      5-min Rain = 0
KFR1 251433Z 21020KT 22/19 A2998 RMK A01 T02150185  RH  083%=      5-min Rain = 0
KFR1 251434Z 21021KT 22/19 A2998 RMK A01 T02160185  RH  083%=      5-min Rain = 0
KFR1 251435Z 21021KT 22/19 A2998 RMK A01 T02160185  RH  083%=      5-min Rain = 0
KFR1 251436Z 21021G26KT 22/19 A2998 RMK A01 T02160185  RH  083%=      5-min Rain = 0
KFR1 251437Z 21022KT 22/19 A2998 RMK A01 T02170185  RH  082%=      5-min Rain = 0
KFR1 251438Z 20022G27KT 22/19 A2998 RMK A01 T02170185  RH  082%=      5-min Rain = 0
KFR1 251439Z 21020KT 22/19 A2999 RMK A01 T02180185  RH  082%=      5-min Rain = 0
KFR1 251440Z 21018G23KT 22/19 A2999 RMK A01 T02170185  RH  082%=      5-min Rain = 0
KFR1 251441Z 21014G19KT 22/19 A2999 RMK A01 T02180186  RH  082%=      5-min Rain = 0
KFR1 251442Z 20018KT 22/19 A2999 RMK A01 T02200187  RH  082%=      5-min Rain = 0
KFR1 251443Z 21016KT 22/19 A2999 RMK A01 T02210187  RH  081%=      5-min Rain = 0
KFR1 251444Z 21018KT 22/19 A2999 RMK A01 T02220187  RH  081%=      5-min Rain = 0
KFR1 251445Z 21017KT 22/19 A2999 RMK A01 T02220187  RH  080%=      5-min Rain = 0
KFR1 251446Z 21020KT 22/19 A2999 RMK A01 T02220187  RH  080%=      5-min Rain = 0
KFR1 251447Z 21019KT 22/19 A2999 RMK A01 T02220186  RH  080%=      5-min Rain = 0
KFR1 251448Z 21018KT 22/19 A2999 RMK A01 T02210186  RH  081%=      5-min Rain = 0
KFR1 251449Z 21015KT 22/19 A2999 RMK A01 T02210187  RH  081%=      5-min Rain = 0
KFR1 251450Z 20019KT 22/19 A2999 RMK A01 T02210187  RH  081%=      5-min Rain = 0
KFR1 251451Z 21018G23KT 22/19 A2999 RMK A01 T02210186  RH  081%=      5-min Rain = 0
KFR1 251452Z 20020KT 22/19 A2999 RMK A01 T02210186  RH  080%=      5-min Rain = 0
KFR1 251453Z 20016G22KT 22/19 A30 RMK A01 T02210186  RH  081%=      5-min Rain = 0
KFR1 251454Z 21016KT 22/19 A30 RMK A01 T02220187  RH  081%=      5-min Rain = 0
KFR1 251455Z 20016G21KT 22/19 A30 RMK A01 T02230188  RH  081%=      5-min Rain = 0
KFR1 251456Z 21015KT 22/19 A30 RMK A01 T02240188  RH  080%=      5-min Rain = 0
KFR1 251457Z 21018KT 22/19 A30 RMK A01 T02240188  RH  080%=      5-min Rain = 0
KFR1 251458Z 21016KT 22/19 A30 RMK A01 T02230187  RH  080%=      5-min Rain = 0
KFR1 251459Z 21017KT 22/19 A30 RMK A01 T02230188  RH  080%=      5-min Rain = 0
KFR1 251500Z 21018KT 22/19 A30 RMK A01 T02220187  RH  080%=      5-min Rain = 0
KFR1 251501Z 20016KT 22/19 A30 RMK A01 T02220187  RH  081%=      5-min Rain = 0
KFR1 251502Z 20016KT 22/19 A30 RMK A01 T02220188  RH  081%=      5-min Rain = 0
KFR1 251503Z 20015KT 22/19 A30 RMK A01 T02220188  RH  081%=      5-min Rain = 0
KFR1 251504Z 20011KT 22/19 A30 RMK A01 T02220188  RH  081%=      5-min Rain = 0
KFR1 251505Z 21013G19KT 22/19 A30 RMK A01 T02230189  RH  081%=      5-min Rain = 0
KFR1 251506Z 21017KT 22/19 A30 RMK A01 T02240188  RH  080%=      5-min Rain = 0
KFR1 251507Z 21014KT 22/19 A30 RMK A01 T02240188  RH  080%=      5-min Rain = 0
KFR1 251508Z 21014KT 22/19 A30 RMK A01 T02240189  RH  080%=      5-min Rain = 0
KFR1 251509Z 21016KT 23/19 A30 RMK A01 T02250188  RH  080%=      5-min Rain = 0
KFR1 251510Z 22016KT 22/19 A30 RMK A01 T02240188  RH  080%=      5-min Rain = 0
KFR1 251511Z 21013KT 23/19 A30 RMK A01 T02250188  RH  080%=      5-min Rain = 0
KFR1 251512Z 21015G22KT 23/19 A30 RMK A01 T02260189  RH  079%=      5-min Rain = 0
KFR1 251513Z 22017KT 23/19 A30 RMK A01 T02270188  RH  079%=      5-min Rain = 0
KFR1 251514Z 22016KT 23/19 A30 RMK A01 T02260189  RH  079%=      5-min Rain = 0
KFR1 251515Z 21016KT 23/19 A30 RMK A01 T02260188  RH  079%=      5-min Rain = 0
KFR1 251516Z 22016KT 23/19 A30 RMK A01 T02250187  RH  079%=      5-min Rain = 0
KFR1 251517Z 21012KT 23/19 A30 RMK A01 T02250187  RH  079%=      5-min Rain = 0
KFR1 251518Z 21012KT 23/19 A30 RMK A01 T02260189  RH  080%=      5-min Rain = 0
KFR1 251519Z 21012KT 23/19 A30 RMK A01 T02270189  RH  079%=      5-min Rain = 0
KFR1 251520Z 21013G18KT 23/19 A30 RMK A01 T02290190  RH  079%=      5-min Rain = 0
KFR1 251521Z 19016KT 23/19 A30 RMK A01 T02300189  RH  078%=      5-min Rain = 0
KFR1 251522Z 21016KT 23/19 A30 RMK A01 T02280187  RH  077%=      5-min Rain = 0
KFR1 251523Z 21014KT 23/19 A30 RMK A01 T02280187  RH  078%=      5-min Rain = 0
KFR1 251524Z 21015KT 23/19 A30 RMK A01 T02270188  RH  078%=      5-min Rain = 0
KFR1 251525Z 21020KT 23/19 A30 RMK A01 T02280187  RH  078%=      5-min Rain = 0
KFR1 251526Z 21017KT 23/19 A30 RMK A01 T02270186  RH  077%=      5-min Rain = 0
KFR1 251527Z 21015KT 23/19 A30 RMK A01 T02270187  RH  078%=      5-min Rain = 0
KFR1 251528Z 20017G24KT 23/19 A30 RMK A01 T02280187  RH  077%=      5-min Rain = 0
KFR1 251529Z 20019KT 23/19 A30 RMK A01 T02290186  RH  077%=      5-min Rain = 0
KFR1 251530Z 21013KT 23/19 A30 RMK A01 T02300187  RH  077%=      5-min Rain = 0
KFR1 251531Z 21017KT 23/19 A30 RMK A01 T02310188  RH  077%=      5-min Rain = 0
KFR1 251532Z 21015G20KT 23/19 A30 RMK A01 T02320188  RH  076%=      5-min Rain = 0
KFR1 251533Z 20015KT 23/19 A30 RMK A01 T02330189  RH  076%=      5-min Rain = 0
KFR1 251534Z 20012G18KT 24/19 A30 RMK A01 T02350191  RH  076%=      5-min Rain = 0
KFR1 251535Z 21013KT 24/19 A30 RMK A01 T02380192  RH  076%=      5-min Rain = 0
KFR1 251536Z 21016KT 24/19 A30 RMK A01 T02380189  RH  074%=      5-min Rain = 0
KFR1 251537Z 20015G20KT 24/19 A30 RMK A01 T02380190  RH  074%=      5-min Rain = 0
KFR1 251538Z 21018G24KT 24/19 A30 RMK A01 T02370187  RH  074%=      5-min Rain = 0
KFR1 251539Z 20018KT 24/19 A30 RMK A01 T02360187  RH  074%=      5-min Rain = 0
KFR1 251540Z 20018KT 24/19 A30 RMK A01 T02360187  RH  074%=      5-min Rain = 0
KFR1 251541Z 20016G23KT 24/19 A30 RMK A01 T02360188  RH  074%=      5-min Rain = 0
KFR1 251542Z 21018G24KT 24/19 A30 RMK A01 T02370188  RH  074%=      5-min Rain = 0
KFR1 251543Z 20016KT 24/19 A30 RMK A01 T02370188  RH  074%=      5-min Rain = 0
KFR1 251544Z 21016G22KT 24/19 A30 RMK A01 T02380189  RH  074%=      5-min Rain = 0
KFR1 251545Z 21017KT 24/19 A30 RMK A01 T02390189  RH  074%=      5-min Rain = 0
KFR1 251546Z 21016G21KT 24/19 A30 RMK A01 T02390189  RH  074%=      5-min Rain = 0
KFR1 251547Z 20016KT 24/19 A30 RMK A01 T02390189  RH  074%=      5-min Rain = 0
KFR1 251548Z 21018G24KT 24/19 A30 RMK A01 T02400189  RH  073%=      5-min Rain = 0
KFR1 251549Z 21018KT 24/19 A30 RMK A01 T02390187  RH  073%=      5-min Rain = 0
KFR1 251550Z 20019G24KT 24/19 A30 RMK A01 T02380188  RH  073%=      5-min Rain = 0
KFR1 251551Z 21017G22KT 24/19 A30 RMK A01 T02380187  RH  073%=      5-min Rain = 0
KFR1 251552Z 20017G22KT 24/19 A30 RMK A01 T02390187  RH  073%=      5-min Rain = 0
KFR1 251553Z 21015KT 24/19 A30 RMK A01 T02400189  RH  073%=      5-min Rain = 0
KFR1 251554Z 21015G20KT 24/19 A30 RMK A01 T02400189  RH  073%=      5-min Rain = 0
KFR1 251555Z 22016KT 24/19 A30 RMK A01 T02410188  RH  072%=      5-min Rain = 0
KFR1 251556Z 21010KT 24/19 A30 RMK A01 T02400190  RH  074%=      5-min Rain = 0
KFR1 251557Z 21012KT 24/19 A30 RMK A01 T02420193  RH  074%=      5-min Rain = 0
KFR1 251558Z 19013KT 24/19 A30 RMK A01 T02440193  RH  073%=      5-min Rain = 0
KFR1 251559Z 20014KT 25/19 A30 RMK A01 T02450192  RH  072%=      5-min Rain = 0
KFR1 251600Z 20013KT 25/19 A30 RMK A01 T02450191  RH  072%=      5-min Rain = 0
KFR1 251601Z 20013G18KT 25/19 A30 RMK A01 T02460190  RH  071%=      5-min Rain = 0
KFR1 251602Z 21014KT 25/19 A30 RMK A01 T02450190  RH  071%=      5-min Rain = 0
KFR1 251603Z 22015KT 24/19 A30 RMK A01 T02440188  RH  071%=      5-min Rain = 0
KFR1 251604Z 21012KT 24/19 A30 RMK A01 T02440188  RH  071%=      5-min Rain = 0
KFR1 251605Z 21014KT 24/19 A30 RMK A01 T02440190  RH  072%=      5-min Rain = 0
KFR1 251606Z 21015G22KT 24/19 A30 RMK A01 T02440188  RH  071%=      5-min Rain = 0
KFR1 251607Z 21012KT 24/19 A30 RMK A01 T02430190  RH  072%=      5-min Rain = 0
KFR1 251608Z 21012KT 24/19 A30 RMK A01 T02430191  RH  072%=      5-min Rain = 0
KFR1 251609Z 20012KT 25/19 A30 RMK A01 T02450192  RH  072%=      5-min Rain = 0
KFR1 251610Z 19015KT 25/19 A30 RMK A01 T02460191  RH  071%=      5-min Rain = 0
KFR1 251611Z 19016KT 25/19 A30 RMK A01 T02450190  RH  071%=      5-min Rain = 0
KFR1 251612Z 21014KT 24/19 A30 RMK A01 T02420190  RH  072%=      5-min Rain = 0
KFR1 251613Z 20018KT 24/19 A30 RMK A01 T02410186  RH  071%=      5-min Rain = 0
KFR1 251614Z 20013KT 24/19 A30 RMK A01 T02390186  RH  072%=      5-min Rain = 0
KFR1 251615Z 21015KT 24/19 A30 RMK A01 T02380186  RH  073%=      5-min Rain = 0
KFR1 251616Z 21015KT 24/19 A30 RMK A01 T02380185  RH  072%=      5-min Rain = 0
KFR1 251617Z 20014G20KT 24/19 A30 RMK A01 T02390185  RH  072%=      5-min Rain = 0
KFR1 251618Z 20013KT 24/19 A30 RMK A01 T02410188  RH  072%=      5-min Rain = 0
KFR1 251619Z 20014KT 24/19 A30 RMK A01 T02440188  RH  071%=      5-min Rain = 0
KFR1 251620Z 20015KT 25/19 A30 RMK A01 T02450189  RH  071%=      5-min Rain = 0
KFR1 251621Z 21015KT 25/19 A30 RMK A01 T02460189  RH  070%=      5-min Rain = 0
KFR1 251622Z 21014KT 25/19 A30 RMK A01 T02470188  RH  070%=      5-min Rain = 0
KFR1 251623Z 21011KT 25/19 A30 RMK A01 T02460190  RH  071%=      5-min Rain = 0
KFR1 251624Z 20013KT 25/19 A30 RMK A01 T02480192  RH  071%=      5-min Rain = 0
KFR1 251625Z 21013KT 25/19 A30 RMK A01 T02490188  RH  069%=      5-min Rain = 0
KFR1 251626Z 21011G16KT 25/19 A30 RMK A01 T02470189  RH  070%=      5-min Rain = 0
KFR1 251627Z 22013G18KT 25/19 A30 RMK A01 T02470188  RH  070%=      5-min Rain = 0
KFR1 251628Z 21009KT 25/19 A30 RMK A01 T02470188  RH  070%=      5-min Rain = 0
KFR1 251629Z 20016KT 25/19 A30 RMK A01 T02480189  RH  070%=      5-min Rain = 0
KFR1 251630Z 20015KT 25/19 A30 RMK A01 T02490188  RH  069%=      5-min Rain = 0
KFR1 251631Z 20016KT 25/19 A30 RMK A01 T02490188  RH  069%=      5-min Rain = 0
KFR1 251632Z 21014KT 25/19 A30 RMK A01 T02490189  RH  069%=      5-min Rain = 0
KFR1 251633Z 20012KT 25/19 A30 RMK A01 T02490191  RH  070%=      5-min Rain = 0
KFR1 251634Z 20015KT 25/19 A30 RMK A01 T02510189  RH  069%=      5-min Rain = 0
KFR1 251635Z 20012KT 25/19 A30 RMK A01 T02510191  RH  069%=      5-min Rain = 0
KFR1 251636Z 19014KT 25/19 A30 RMK A01 T02530189  RH  068%=      5-min Rain = 0
KFR1 251637Z 19014KT 25/19 A30 RMK A01 T02530191  RH  069%=      5-min Rain = 0
KFR1 251638Z 19013KT 25/19 A30 RMK A01 T02530191  RH  069%=      5-min Rain = 0
KFR1 251639Z 20010KT 25/19 A30 RMK A01 T02520192  RH  069%=      5-min Rain = 0
KFR1 251640Z 21012KT 25/19 A30 RMK A01 T02510189  RH  069%=      5-min Rain = 0
KFR1 251641Z 20015KT 25/19 A30 RMK A01 T02480186  RH  068%=      5-min Rain = 0
KFR1 251642Z 20014KT 25/18 A30 RMK A01 T02450184  RH  069%=      5-min Rain = 0
KFR1 251643Z 21016KT 24/18 A30 RMK A01 T02440184  RH  069%=      5-min Rain = 0
KFR1 251644Z 20013G18KT 24/18 A30 RMK A01 T02440184  RH  069%=      5-min Rain = 0
KFR1 251645Z 20012KT 24/19 A30 RMK A01 T02440186  RH  070%=      5-min Rain = 0
KFR1 251646Z 21010KT 25/19 A30 RMK A01 T02450186  RH  070%=      5-min Rain = 0
KFR1 251647Z 21011KT 25/19 A30 RMK A01 T02460186  RH  069%=      5-min Rain = 0
KFR1 251648Z 20012KT 25/19 A30 RMK A01 T02470188  RH  070%=      5-min Rain = 0
KFR1 251649Z 20012KT 25/19 A30 RMK A01 T02480187  RH  069%=      5-min Rain = 0
KFR1 251650Z 21011KT 25/19 A30 RMK A01 T02490187  RH  069%=      5-min Rain = 0
KFR1 251651Z 21011KT 25/19 A30 RMK A01 T02490188  RH  069%=      5-min Rain = 0
KFR1 251652Z 22011KT 25/19 A30 RMK A01 T02500187  RH  068%=      5-min Rain = 0
KFR1 251653Z 21010KT 25/19 A30 RMK A01 T02490185  RH  068%=      5-min Rain = 0
KFR1 251654Z 20008KT 25/19 A30 RMK A01 T02470186  RH  069%=      5-min Rain = 0
KFR1 251655Z 20010KT 25/19 A30 RMK A01 T02470188  RH  069%=      5-min Rain = 0
KFR1 251656Z 21010KT 25/19 A30 RMK A01 T02480187  RH  069%=      5-min Rain = 0
KFR1 251657Z 21010KT 25/19 A30 RMK A01 T02500191  RH  069%=      5-min Rain = 0
KFR1 251658Z 20011KT 25/19 A30 RMK A01 T02530193  RH  069%=      5-min Rain = 0
KFR1 251659Z 21011KT 25/19 A30 RMK A01 T02540191  RH  068%=      5-min Rain = 0
KFR1 251700Z 19013KT 26/19 A30 RMK A01 T02550191  RH  068%=      5-min Rain = 0
KFR1 251701Z 19012KT 26/19 A30 RMK A01 T02550191  RH  068%=      5-min Rain = 0
KFR1 251702Z 20011KT 26/19 A30 RMK A01 T02550192  RH  068%=      5-min Rain = 0
KFR1 251703Z 21010KT 25/19 A30 RMK A01 T02540190  RH  068%=      5-min Rain = 0
KFR1 251704Z 21012KT 25/19 A30 RMK A01 T02530189  RH  068%=      5-min Rain = 0
KFR1 251705Z 20010KT 25/19 A30 RMK A01 T02520191  RH  069%=      5-min Rain = 0
KFR1 251706Z 21010KT 25/19 A30 RMK A01 T02510191  RH  069%=      5-min Rain = 0
KFR1 251707Z 21013KT 25/19 A30 RMK A01 T02510190  RH  069%=      5-min Rain = 0
KFR1 251708Z 21011KT 25/19 A30 RMK A01 T02490188  RH  069%=      5-min Rain = 0
KFR1 251709Z 21014KT 25/19 A30 RMK A01 T02470189  RH  070%=      5-min Rain = 0
KFR1 251710Z 21012KT 25/19 A30 RMK A01 T02470189  RH  070%=      5-min Rain = 0
KFR1 251711Z 20011KT 25/19 A30 RMK A01 T02460187  RH  069%=      5-min Rain = 0
KFR1 251712Z 20011KT 25/19 A30 RMK A01 T02480188  RH  069%=      5-min Rain = 0
KFR1 251713Z 19013KT 25/19 A30 RMK A01 T02520187  RH  068%=      5-min Rain = 0
KFR1 251714Z 20012KT 25/19 A30 RMK A01 T02530189  RH  067%=      5-min Rain = 0
KFR1 251715Z 20012KT 26/19 A30 RMK A01 T02560191  RH  067%=      5-min Rain = 0
KFR1 251716Z 21013KT 26/19 A2999 RMK A01 T02560190  RH  067%=      5-min Rain = 0
KFR1 251717Z 21013KT 26/19 A30 RMK A01 T02570189  RH  066%=      5-min Rain = 0
KFR1 251718Z 20014KT 26/19 A30 RMK A01 T02570187  RH  065%=      5-min Rain = 0
KFR1 251719Z 20012KT 26/19 A30 RMK A01 T02570189  RH  066%=      5-min Rain = 0
KFR1 251720Z 21009KT 26/19 A30 RMK A01 T02580189  RH  066%=      5-min Rain = 0
KFR1 251721Z 21011G17KT 26/19 A30 RMK A01 T02580192  RH  067%=      5-min Rain = 0
KFR1 251722Z 21012G17KT 26/19 A2999 RMK A01 T02590188  RH  065%=      5-min Rain = 0
KFR1 251723Z 20012KT 26/19 A2999 RMK A01 T02590188  RH  065%=      5-min Rain = 0
KFR1 251724Z 20013KT 26/19 A2999 RMK A01 T02590187  RH  064%=      5-min Rain = 0
KFR1 251725Z 22012KT 26/19 A2999 RMK A01 T02580187  RH  065%=      5-min Rain = 0
KFR1 251726Z 20011KT 26/19 A2999 RMK A01 T02590191  RH  066%=      5-min Rain = 0
KFR1 251727Z 21011KT 26/19 A2999 RMK A01 T02610190  RH  065%=      5-min Rain = 0
KFR1 251728Z 21012KT 26/19 A2999 RMK A01 T02620191  RH  065%=      5-min Rain = 0
KFR1 251729Z 20014KT 26/19 A2999 RMK A01 T02640190  RH  063%=      5-min Rain = 0
KFR1 251730Z 20014KT 26/19 A2999 RMK A01 T02610188  RH  064%=      5-min Rain = 0
KFR1 251731Z 21013KT 26/19 A2999 RMK A01 T02580188  RH  065%=      5-min Rain = 0
KFR1 251732Z 21013KT 26/19 A2999 RMK A01 T02570188  RH  065%=      5-min Rain = 0
KFR1 251733Z 20010KT 26/19 A2999 RMK A01 T02570189  RH  066%=      5-min Rain = 0
KFR1 251734Z 21012KT 26/19 A2999 RMK A01 T02570188  RH  065%=      5-min Rain = 0
KFR1 251735Z 22011KT 26/19 A2999 RMK A01 T02560189  RH  066%=      5-min Rain = 0
KFR1 251736Z 22012KT 26/19 A2999 RMK A01 T02560190  RH  067%=      5-min Rain = 0
KFR1 251737Z 22011KT 26/19 A2999 RMK A01 T02560188  RH  066%=      5-min Rain = 0
KFR1 251738Z 21012KT 26/19 A2999 RMK A01 T02550189  RH  067%=      5-min Rain = 0
KFR1 251739Z 20011KT 26/19 A2999 RMK A01 T02550188  RH  066%=      5-min Rain = 0
KFR1 251740Z 21010KT 26/19 A2999 RMK A01 T02580191  RH  066%=      5-min Rain = 0
KFR1 251741Z 20011KT 26/19 A2999 RMK A01 T02600192  RH  066%=      5-min Rain = 0
KFR1 251742Z 20013KT 26/19 A2999 RMK A01 T02620192  RH  065%=      5-min Rain = 0
KFR1 251743Z 20013KT 26/19 A2999 RMK A01 T02640190  RH  064%=      5-min Rain = 0
KFR1 251744Z 20010KT 26/19 A2999 RMK A01 T02640190  RH  064%=      5-min Rain = 0
KFR1 251745Z 21012KT 26/19 A2999 RMK A01 T02640191  RH  064%=      5-min Rain = 0
KFR1 251746Z 22013G18KT 27/19 A2999 RMK A01 T02650190  RH  064%=      5-min Rain = 0
KFR1 251747Z 21015G20KT 27/19 A2999 RMK A01 T02650190  RH  063%=      5-min Rain = 0
KFR1 251748Z 21013KT 26/19 A2999 RMK A01 T02640189  RH  063%=      5-min Rain = 0
KFR1 251749Z 19013G18KT 26/19 A2999 RMK A01 T02630188  RH  063%=      5-min Rain = 0
KFR1 251750Z 20012G18KT 26/19 A2999 RMK A01 T02610187  RH  064%=      5-min Rain = 0
KFR1 251751Z 19011KT 26/19 A2999 RMK A01 T02600190  RH  065%=      5-min Rain = 0
KFR1 251752Z 19010KT 26/19 A2999 RMK A01 T02600190  RH  065%=      5-min Rain = 0
KFR1 251753Z 19011KT 26/19 A2999 RMK A01 T02600190  RH  065%=      5-min Rain = 0
KFR1 251754Z 20010KT 26/19 A2999 RMK A01 T02600191  RH  066%=      5-min Rain = 0
KFR1 251755Z 21009KT 26/19 A2999 RMK A01 T02590192  RH  066%=      5-min Rain = 0
KFR1 251756Z 20008KT 26/19 A2999 RMK A01 T02600191  RH  066%=      5-min Rain = 0
KFR1 251757Z 22009KT 26/20 A2999 RMK A01 T02620195  RH  067%=      5-min Rain = 0
KFR1 251758Z 21008KT 26/19 A2999 RMK A01 T02630194  RH  066%=      5-min Rain = 0
KFR1 251759Z 20011G16KT 26/20 A2999 RMK A01 T02640197  RH  067%=      5-min Rain = 0
KFR1 251800Z 21013KT 27/19 A2999 RMK A01 T02670192  RH  063%=      5-min Rain = 0
KFR1 251801Z 19012KT 27/19 A2999 RMK A01 T02680194  RH  064%=      5-min Rain = 0
KFR1 251802Z 20014KT 27/19 A2999 RMK A01 T02700192  RH  062%=      5-min Rain = 0
KFR1 251803Z 21011KT 27/19 A2999 RMK A01 T02660190  RH  063%=      5-min Rain = 0
KFR1 251804Z 19014KT 27/19 A2998 RMK A01 T02650192  RH  064%=      5-min Rain = 0
KFR1 251805Z 19014KT 27/19 A2998 RMK A01 T02650191  RH  064%=      5-min Rain = 0
KFR1 251806Z 20013KT 27/19 A2998 RMK A01 T02650190  RH  064%=      5-min Rain = 0
KFR1 251807Z 19013KT 26/19 A2998 RMK A01 T02630190  RH  064%=      5-min Rain = 0
KFR1 251808Z 19012KT 26/19 A2999 RMK A01 T02610190  RH  065%=      5-min Rain = 0
KFR1 251809Z 20012KT 26/19 A2998 RMK A01 T02600190  RH  065%=      5-min Rain = 0
KFR1 251810Z 20010KT 26/19 A2998 RMK A01 T02600191  RH  066%=      5-min Rain = 0
KFR1 251811Z 21010KT 26/19 A2998 RMK A01 T02610191  RH  066%=      5-min Rain = 0
KFR1 251812Z 21011KT 26/19 A2998 RMK A01 T02610193  RH  066%=      5-min Rain = 0
KFR1 251813Z 20013KT 26/19 A2998 RMK A01 T02610192  RH  066%=      5-min Rain = 0
KFR1 251814Z 20012KT 26/19 A2998 RMK A01 T02620191  RH  065%=      5-min Rain = 0
KFR1 251815Z 19011KT 26/19 A2998 RMK A01 T02610192  RH  065%=      5-min Rain = 0
KFR1 251816Z 19010KT 26/20 A2998 RMK A01 T02630195  RH  066%=      5-min Rain = 0
KFR1 251817Z 19013KT 27/20 A2998 RMK A01 T02660195  RH  065%=      5-min Rain = 0
KFR1 251818Z 18011KT 27/20 A2998 RMK A01 T02670195  RH  064%=      5-min Rain = 0
KFR1 251819Z 20012KT 27/19 A2998 RMK A01 T02680194  RH  064%=      5-min Rain = 0
KFR1 251820Z 18014KT 27/20 A2998 RMK A01 T02690195  RH  064%=      5-min Rain = 0
KFR1 251821Z 19014KT 27/19 A2997 RMK A01 T02680191  RH  063%=      5-min Rain = 0
KFR1 251822Z 18014KT 27/19 A2998 RMK A01 T02660193  RH  064%=      5-min Rain = 0
KFR1 251823Z 18010G15KT 27/20 A2998 RMK A01 T02660195  RH  065%=      5-min Rain = 0
KFR1 251824Z 19012G18KT 27/20 A2998 RMK A01 T02670198  RH  066%=      5-min Rain = 0
KFR1 251825Z 17016KT 27/20 A2998 RMK A01 T02690198  RH  065%=      5-min Rain = 0
KFR1 251826Z 17015KT 27/20 A2998 RMK A01 T02650195  RH  065%=      5-min Rain = 0
KFR1 251827Z 18016KT 26/19 A2998 RMK A01 T02620194  RH  067%=      5-min Rain = 0
KFR1 251828Z 19014KT 26/20 A2997 RMK A01 T02600195  RH  068%=      5-min Rain = 0
KFR1 251829Z 17015KT 26/20 A2997 RMK A01 T02590195  RH  068%=      5-min Rain = 0
KFR1 251830Z 18013KT 26/20 A2998 RMK A01 T02580196  RH  068%=      5-min Rain = 0
KFR1 251831Z 18012KT 26/20 A2998 RMK A01 T02590195  RH  068%=      5-min Rain = 0
KFR1 251832Z 19014KT 26/19 A2997 RMK A01 T02610191  RH  065%=      5-min Rain = 0
KFR1 251833Z 18014KT 26/19 A2997 RMK A01 T02610191  RH  065%=      5-min Rain = 0
KFR1 251834Z 18017KT 26/19 A2997 RMK A01 T02620191  RH  065%=      5-min Rain = 0
KFR1 251835Z 18018KT 26/19 A2997 RMK A01 T02610190  RH  065%=      5-min Rain = 0
KFR1 251836Z 18018KT 26/19 A2997 RMK A01 T02590192  RH  066%=      5-min Rain = 0
KFR1 251837Z 17014G19KT 26/19 A2997 RMK A01 T02590193  RH  067%=      5-min Rain = 0
KFR1 251838Z 17014G19KT 26/19 A2997 RMK A01 T02600193  RH  066%=      5-min Rain = 0
KFR1 251839Z 17015KT 26/19 A2997 RMK A01 T02600192  RH  066%=      5-min Rain = 0
KFR1 251840Z 17012KT 26/19 A2997 RMK A01 T02600192  RH  066%=      5-min Rain = 0
KFR1 251841Z 17010G15KT 26/19 A2997 RMK A01 T02590194  RH  067%=      5-min Rain = 0
KFR1 251842Z 17013KT 26/19 A2997 RMK A01 T02600194  RH  067%=      5-min Rain = 0
KFR1 251843Z 17014KT 26/19 A2997 RMK A01 T02590193  RH  067%=      5-min Rain = 0
KFR1 251844Z 17013G18KT 26/19 A2996 RMK A01 T02580193  RH  067%=      5-min Rain = 0
KFR1 251845Z 18010KT 26/20 A2996 RMK A01 T02580195  RH  068%=      5-min Rain = 0
KFR1 251846Z 17011G17KT 26/20 A2997 RMK A01 T02600197  RH  068%=      5-min Rain = 0
KFR1 251847Z 17011KT 26/20 A2997 RMK A01 T02610196  RH  067%=      5-min Rain = 0
KFR1 251848Z 17016G22KT 26/20 A2996 RMK A01 T02620195  RH  067%=      5-min Rain = 0
KFR1 251849Z 17013KT 26/20 A2996 RMK A01 T02620195  RH  067%=      5-min Rain = 0
KFR1 251850Z 17012G17KT 26/19 A2996 RMK A01 T02620194  RH  066%=      5-min Rain = 0
KFR1 251851Z 19013KT 26/19 A2996 RMK A01 T02620194  RH  066%=      5-min Rain = 0
KFR1 251852Z 18015KT 26/19 A2996 RMK A01 T02620190  RH  065%=      5-min Rain = 0
KFR1 251853Z 17015KT 26/19 A2995 RMK A01 T02610191  RH  066%=      5-min Rain = 0
KFR1 251854Z 18015KT 26/19 A2995 RMK A01 T02610191  RH  065%=      5-min Rain = 0
KFR1 251855Z 19016KT 26/19 A2995 RMK A01 T02610192  RH  066%=      5-min Rain = 0
KFR1 251856Z 18013KT 26/19 A2995 RMK A01 T02600192  RH  066%=      5-min Rain = 0
KFR1 251857Z 18010KT 26/20 A2995 RMK A01 T02590196  RH  068%=      5-min Rain = 0
KFR1 251858Z 16014KT 26/19 A2995 RMK A01 T02600193  RH  067%=      5-min Rain = 0
KFR1 251859Z 17014KT 26/19 A2995 RMK A01 T02590189  RH  065%=      5-min Rain = 0
KFR1 251900Z 17013KT 26/19 A2994 RMK A01 T02580189  RH  065%=      5-min Rain = 0
KFR1 251901Z 17011KT 26/19 A2994 RMK A01 T02580190  RH  066%=      5-min Rain = 0
KFR1 251902Z 17012KT 26/19 A2994 RMK A01 T02580189  RH  066%=      5-min Rain = 0
KFR1 251903Z 17013KT 26/19 A2994 RMK A01 T02590189  RH  066%=      5-min Rain = 0
KFR1 251904Z 17014G21KT 26/19 A2994 RMK A01 T02580193  RH  067%=      5-min Rain = 0
KFR1 251905Z 17012KT 26/20 A2994 RMK A01 T02580195  RH  068%=      5-min Rain = 0
KFR1 251906Z 17014G19KT 26/20 A2994 RMK A01 T02570196  RH  069%=      5-min Rain = 0
KFR1 251907Z 16011KT 26/19 A2994 RMK A01 T02560194  RH  068%=      5-min Rain = 0
KFR1 251908Z 15012KT 26/19 A2994 RMK A01 T02560192  RH  068%=      5-min Rain = 0
KFR1 251909Z 16011KT 26/19 A2994 RMK A01 T02550192  RH  068%=      5-min Rain = 0
KFR1 251910Z 16013KT 25/19 A2994 RMK A01 T02540192  RH  068%=      5-min Rain = 0
KFR1 251911Z 16013KT 25/19 A2993 RMK A01 T02530191  RH  068%=      5-min Rain = 0
KFR1 251912Z 15008KT 25/19 A2993 RMK A01 T02520193  RH  070%=      5-min Rain = 0
KFR1 251913Z 15011KT 25/19 A2993 RMK A01 T02520194  RH  070%=      5-min Rain = 0
KFR1 251914Z 16012G18KT 25/19 A2993 RMK A01 T02520193  RH  070%=      5-min Rain = 0
KFR1 251915Z 16012KT 25/19 A2993 RMK A01 T02510193  RH  070%=      5-min Rain = 0
KFR1 251916Z 16014KT 25/19 A2994 RMK A01 T02510193  RH  070%=      5-min Rain = 0
KFR1 251917Z 16012KT 25/19 A2994 RMK A01 T02500194  RH  071%=      5-min Rain = 0
KFR1 251918Z 16012KT 25/19 A2994 RMK A01 T02490194  RH  072%=      5-min Rain = 0
KFR1 251919Z 17012KT 25/19 A2994 RMK A01 T02480194  RH  072%=      5-min Rain = 0
KFR1 251920Z 17014KT 25/19 A2994 RMK A01 T02480192  RH  071%=      5-min Rain = 0
KFR1 251921Z 17013KT 25/19 A2994 RMK A01 T02470191  RH  071%=      5-min Rain = 0
KFR1 251922Z 17014G19KT 25/19 A2994 RMK A01 T02470191  RH  071%=      5-min Rain = 0
KFR1 251923Z 17012KT 25/19 A2994 RMK A01 T02450190  RH  071%=      5-min Rain = 0
KFR1 251924Z 16011KT 25/19 A2994 RMK A01 T02450191  RH  072%=      5-min Rain = 0
KFR1 251925Z 15010KT 24/19 A2994 RMK A01 T02440191  RH  073%=      5-min Rain = 0
KFR1 251926Z 16012KT 24/19 A2994 RMK A01 T02430191  RH  073%=      5-min Rain = 0
KFR1 251927Z 17013KT 24/19 A2994 RMK A01 T02420191  RH  073%=      5-min Rain = 0
KFR1 251928Z 16009KT 24/19 A2994 RMK A01 T02410191  RH  074%=      5-min Rain = 0
KFR1 251929Z 16009G14KT 24/19 A2994 RMK A01 T02400192  RH  074%=      5-min Rain = 0
KFR1 251930Z 16011KT 24/19 A2993 RMK A01 T02400191  RH  074%=      5-min Rain = 0
KFR1 251931Z 15009KT 24/19 A2993 RMK A01 T02390191  RH  074%=      5-min Rain = 0
KFR1 251932Z 15011KT 24/19 A2993 RMK A01 T02390191  RH  074%=      5-min Rain = 0
KFR1 251933Z 16011KT 24/19 A2994 RMK A01 T02380191  RH  075%=      5-min Rain = 0
KFR1 251934Z 16010KT 24/19 A2994 RMK A01 T02380191  RH  075%=      5-min Rain = 0
KFR1 251935Z 16011KT 24/19 A2994 RMK A01 T02370192  RH  076%=      5-min Rain = 0
KFR1 251936Z 15008G13KT 24/19 A2994 RMK A01 T02370192  RH  076%=      5-min Rain = 0
KFR1 251937Z 16009G14KT 24/19 A2994 RMK A01 T02360191  RH  076%=      5-min Rain = 0
KFR1 251938Z 16011KT 24/19 A2994 RMK A01 T02360190  RH  075%=      5-min Rain = 0
KFR1 251939Z 16013KT 24/19 A2994 RMK A01 T02360190  RH  075%=      5-min Rain = 0
KFR1 251940Z 16014KT 24/19 A2994 RMK A01 T02350190  RH  076%=      5-min Rain = 0
KFR1 251941Z 16012KT 24/19 A2995 RMK A01 T02350190  RH  076%=      5-min Rain = 0
KFR1 251942Z 16013KT 24/19 A2995 RMK A01 T02350190  RH  076%=      5-min Rain = 0
KFR1 251943Z 17012KT 23/19 A2994 RMK A01 T02340190  RH  076%=      5-min Rain = 0
KFR1 251944Z 16009KT 23/19 A2994 RMK A01 T02340190  RH  076%=      5-min Rain = 0
KFR1 251945Z 16012KT 23/19 A2993 RMK A01 T02340190  RH  077%=      5-min Rain = 0
KFR1 251946Z 15010KT 23/19 A2993 RMK A01 T02330190  RH  077%=      5-min Rain = 0
KFR1 251947Z 14011KT 23/19 A2993 RMK A01 T02330190  RH  077%=      5-min Rain = 0
KFR1 251948Z 14009KT 23/19 A2993 RMK A01 T02330190  RH  077%=      5-min Rain = 0
KFR1 251949Z 15009KT 23/19 A2992 RMK A01 T02320190  RH  077%=      5-min Rain = 0
KFR1 251950Z 15010G16KT 23/19 A2992 RMK A01 T02320190  RH  077%=      5-min Rain = 0
KFR1 251951Z 14009G14KT 23/19 A2992 RMK A01 T02320190  RH  078%=      5-min Rain = 0
KFR1 251952Z 14009KT 23/19 A2992 RMK A01 T02320191  RH  078%=      5-min Rain = 0
KFR1 251953Z 13009KT 23/19 A2992 RMK A01 T02310191  RH  078%=      5-min Rain = 0
KFR1 251954Z 13011KT 23/19 A2992 RMK A01 T02300192  RH  079%=      5-min Rain = 0
KFR1 251955Z 14010KT 23/19 A2992 RMK A01 T02300192  RH  079%=      5-min Rain = 0
KFR1 251956Z 14009KT 23/19 A2992 RMK A01 T02300192  RH  079%=      5-min Rain = 0
KFR1 251957Z 15009KT 23/19 A2993 RMK A01 T02290192  RH  080%=      5-min Rain = 0
KFR1 251958Z 14008KT 23/19 A2993 RMK A01 T02290193  RH  080%=      5-min Rain = 0
KFR1 251959Z 15007KT 23/19 A2994 RMK A01 T02280192  RH  080%=      5-min Rain = 0
KFR1 252000Z 16007KT 23/19 A2994 RMK A01 T02280193  RH  080%=      5-min Rain = 0
KFR1 252001Z 17011KT 23/19 A2995 RMK A01 T02280193  RH  081%=      5-min Rain = 0
KFR1 252002Z 17012KT 23/19 A2995 RMK A01 T02290193  RH  081%=      5-min Rain = 0
KFR1 252003Z 17013KT 23/19 A2995 RMK A01 T02280193  RH  080%=      5-min Rain = 0
KFR1 252004Z 17015G20KT 23/19 A2996 RMK A01 T02290193  RH  080%=      5-min Rain = 0
KFR1 252005Z 17013KT 23/19 A2995 RMK A01 T02280193  RH  080%=      5-min Rain = 0
KFR1 252006Z 18013KT 23/19 A2995 RMK A01 T02280194  RH  081%=      5-min Rain = 0
KFR1 252007Z 18013KT 23/19 A2995 RMK A01 T02280194  RH  081%=      5-min Rain = 0
KFR1 252008Z 18014G19KT 23/20 A2996 RMK A01 T02270196  RH  083%=      5-min Rain = 0.01
KFR1 252009Z 17013G19KT 22/20 A2995 RMK A01 T02240197  RH  085%=      5-min Rain = 0.03
KFR1 252010Z 16010KT 22/20 A2995 RMK A01 T02200197  RH  087%=      5-min Rain = 0.02
KFR1 252011Z 17010KT 22/20 A2995 RMK A01 T02170197  RH  088%=      5-min Rain = 0
KFR1 252012Z 17013KT 22/20 A2996 RMK A01 T02150197  RH  089%=      5-min Rain = 0
KFR1 252013Z 17012KT 21/20 A2996 RMK A01 T02140197  RH  090%=      5-min Rain = 0.01
KFR1 252014Z 17011KT 21/20 A2996 RMK A01 T02140198  RH  090%=      5-min Rain = 0
KFR1 252015Z 17012G17KT 21/20 A2996 RMK A01 T02140199  RH  091%=      5-min Rain = 0
KFR1 252016Z 17014KT 21/19 A2996 RMK A01 T02130194  RH  088%=      5-min Rain = 0
KFR1 252017Z 17011KT 21/19 A2996 RMK A01 T02130193  RH  088%=      5-min Rain = 0
KFR1 252018Z 17010KT 21/19 A2996 RMK A01 T02130194  RH  089%=      5-min Rain = 0
KFR1 252019Z 16012KT 21/19 A2996 RMK A01 T02120193  RH  089%=      5-min Rain = 0.01
KFR1 252020Z 15010KT 21/19 A2996 RMK A01 T02110193  RH  089%=      5-min Rain = 0
KFR1 252021Z 15009KT 21/19 A2996 RMK A01 T02110193  RH  089%=      5-min Rain = 0
KFR1 252022Z 13009KT 21/19 A2995 RMK A01 T02100193  RH  090%=      5-min Rain = 0
KFR1 252023Z 15012G18KT 21/19 A2995 RMK A01 T02100193  RH  090%=      5-min Rain = 0
KFR1 252024Z 14010G16KT 21/20 A2995 RMK A01 T02120195  RH  090%=      5-min Rain = 0
KFR1 252025Z 14010KT 21/20 A2995 RMK A01 T02130196  RH  090%=      5-min Rain = 0
KFR1 252026Z 15009KT 21/20 A2995 RMK A01 T02130197  RH  090%=      5-min Rain = 0
KFR1 252027Z 15007KT 21/20 A2996 RMK A01 T02130197  RH  090%=      5-min Rain = 0
KFR1 252028Z 16009KT 21/20 A2996 RMK A01 T02130197  RH  091%=      5-min Rain = 0
KFR1 252029Z 19011G16KT 21/20 A2997 RMK A01 T02120198  RH  091%=      5-min Rain = 0
KFR1 252030Z 23024G32KT 21/19 A2999 RMK A01 T02110192  RH  089%=      5-min Rain = 0.01
KFR1 252031Z 24029G35KT 20/16 A30 RMK A01 T02020164  RH  079%=      5-min Rain = 0
KFR1 252032Z 25029G35KT 19/16 A3002 RMK A01 T01900157  RH  081%=      5-min Rain = 0.01
KFR1 252033Z 25023G28KT 18/16 A3002 RMK A01 T01830159  RH  086%=      5-min Rain = 0
KFR1 252034Z 25020G26KT 18/16 A3002 RMK A01 T01770158  RH  088%=      5-min Rain = 0.01
KFR1 252035Z 26017G23KT 17/16 A3002 RMK A01 T01740158  RH  090%=      5-min Rain = 0
KFR1 252036Z 29015KT 17/16 A3001 RMK A01 T01730159  RH  092%=      5-min Rain = 0
KFR1 252037Z 30015G20KT 17/16 A30 RMK A01 T01710159  RH  092%=      5-min Rain = 0
KFR1 252038Z 30013G21KT 17/16 A30 RMK A01 T01710156  RH  091%=      5-min Rain = 0
KFR1 252039Z 29013G20KT 17/16 A30 RMK A01 T01700155  RH  090%=      5-min Rain = 0.01
KFR1 252040Z 30017G22KT 17/16 A30 RMK A01 T01700156  RH  091%=      5-min Rain = 0
KFR1 252041Z 30012G17KT 17/15 A30 RMK A01 T01700154  RH  091%=      5-min Rain = 0
KFR1 252042Z 31014G22KT 17/15 A2999 RMK A01 T01690152  RH  090%=      5-min Rain = 0
KFR1 252043Z 31011G17KT 17/15 A2999 RMK A01 T01690150  RH  089%=      5-min Rain = 0
KFR1 252044Z 31017G23KT 17/15 A2999 RMK A01 T01680149  RH  089%=      5-min Rain = 0.01
KFR1 252045Z 31016G21KT 17/15 A2999 RMK A01 T01680145  RH  086%=      5-min Rain = 0
KFR1 252046Z 30014G19KT 17/14 A2999 RMK A01 T01690143  RH  085%=      5-min Rain = 0
KFR1 252047Z 29010KT 17/14 A30 RMK A01 T01720142  RH  082%=      5-min Rain = 0
KFR1 252048Z 29010KT 17/14 A30 RMK A01 T01730143  RH  082%=      5-min Rain = 0
KFR1 252049Z 29011G16KT 18/14 A3001 RMK A01 T01750141  RH  080%=      5-min Rain = 0
KFR1 252050Z 29012KT 18/14 A3001 RMK A01 T01780142  RH  079%=      5-min Rain = 0
KFR1 252051Z 29011KT 18/14 A3001 RMK A01 T01780142  RH  079%=      5-min Rain = 0
KFR1 252052Z 29010KT 18/14 A3002 RMK A01 T01790143  RH  079%=      5-min Rain = 0
KFR1 252053Z 27007KT 18/14 A3002 RMK A01 T01780143  RH  080%=      5-min Rain = 0
KFR1 252054Z 26008KT 18/15 A3002 RMK A01 T01770148  RH  083%=      5-min Rain = 0.01
KFR1 252055Z 28007KT 18/15 A3003 RMK A01 T01750149  RH  085%=      5-min Rain = 0
KFR1 252056Z 27006KT 17/15 A3002 RMK A01 T01730148  RH  085%=      5-min Rain = 0
KFR1 252057Z 27005KT 17/15 A3002 RMK A01 T01720148  RH  086%=      5-min Rain = 0.01
KFR1 252058Z 29007KT 17/15 A3002 RMK A01 T01710149  RH  087%=      5-min Rain = 0
KFR1 252059Z 30009KT 17/15 A3002 RMK A01 T01700146  RH  086%=      5-min Rain = 0.01
KFR1 252100Z 29007G15KT 17/15 A3002 RMK A01 T01690146  RH  086%=      5-min Rain = 0.01
KFR1 252101Z 29012G19KT 17/15 A3002 RMK A01 T01680147  RH  087%=      5-min Rain = 0.01
KFR1 252102Z 29013G18KT 17/15 A3002 RMK A01 T01670146  RH  087%=      5-min Rain = 0
KFR1 252103Z 29014G20KT 17/15 A3002 RMK A01 T01670145  RH  087%=      5-min Rain = 0.01
KFR1 252104Z 30011G18KT 17/14 A3001 RMK A01 T01670142  RH  085%=      5-min Rain = 0.01
KFR1 252105Z 31009KT 17/14 A3001 RMK A01 T01660142  RH  085%=      5-min Rain = 0.01
KFR1 252106Z 31009KT 17/14 A30 RMK A01 T01660143  RH  086%=      5-min Rain = 0
KFR1 252107Z 30006KT 17/14 A3001 RMK A01 T01650141  RH  086%=      5-min Rain = 0
KFR1 252108Z 30009KT 17/14 A30 RMK A01 T01650140  RH  085%=      5-min Rain = 0
KFR1 252109Z 30011KT 17/14 A3001 RMK A01 T01650137  RH  084%=      5-min Rain = 0.01
KFR1 252110Z 29013G18KT 17/14 A3001 RMK A01 T01660136  RH  083%=      5-min Rain = 0
KFR1 252111Z 28009KT 17/14 A3001 RMK A01 T01660137  RH  083%=      5-min Rain = 0
KFR1 252112Z 28010KT 17/14 A30 RMK A01 T01650138  RH  084%=      5-min Rain = 0
KFR1 252113Z 28011G16KT 17/14 A30 RMK A01 T01650139  RH  084%=      5-min Rain = 0
KFR1 252114Z 28008G13KT 17/14 A30 RMK A01 T01650137  RH  083%=      5-min Rain = 0
KFR1 252115Z 28006KT 17/14 A30 RMK A01 T01650138  RH  084%=      5-min Rain = 0
KFR1 252116Z 26010KT 16/14 A30 RMK A01 T01640140  RH  086%=      5-min Rain = 0
KFR1 252117Z 26009KT 16/14 A30 RMK A01 T01640140  RH  086%=      5-min Rain = 0
KFR1 252118Z 25011KT 16/14 A30 RMK A01 T01640141  RH  086%=      5-min Rain = 0.01
KFR1 252119Z 25010KT 16/14 A30 RMK A01 T01640141  RH  086%=      5-min Rain = 0.02
KFR1 252120Z 25011KT 16/14 A30 RMK A01 T01630141  RH  087%=      5-min Rain = 0.01
KFR1 252121Z 25010G17KT 16/14 A30 RMK A01 T01630140  RH  087%=      5-min Rain = 0.01
KFR1 252122Z 25010G16KT 16/14 A30 RMK A01 T01620139  RH  086%=      5-min Rain = 0
KFR1 252123Z 24009KT 16/14 A30 RMK A01 T01620140  RH  086%=      5-min Rain = 0
KFR1 252124Z 24009KT 16/14 A2999 RMK A01 T01620138  RH  086%=      5-min Rain = 0
KFR1 252125Z 24008KT 16/14 A2999 RMK A01 T01630139  RH  085%=      5-min Rain = 0
KFR1 252126Z 23009KT 16/14 A2999 RMK A01 T01640138  RH  084%=      5-min Rain = 0
KFR1 252127Z 24008KT 17/14 A2999 RMK A01 T01650136  RH  083%=      5-min Rain = 0.01
KFR1 252128Z 24009KT 17/14 A2999 RMK A01 T01670137  RH  083%=      5-min Rain = 0
KFR1 252129Z 25007KT 17/14 A2999 RMK A01 T01680137  RH  082%=      5-min Rain = 0
KFR1 252130Z 25010KT 17/14 A2999 RMK A01 T01680137  RH  082%=      5-min Rain = 0
KFR1 252131Z 25010KT 17/14 A2999 RMK A01 T01680137  RH  082%=      5-min Rain = 0
KFR1 252132Z 24008KT 17/14 A2999 RMK A01 T01680140  RH  083%=      5-min Rain = 0
KFR1 252133Z 23007KT 17/14 A2999 RMK A01 T01670142  RH  085%=      5-min Rain = 0
KFR1 252134Z 23006KT 17/14 A2998 RMK A01 T01660141  RH  085%=      5-min Rain = 0
KFR1 252135Z 24009KT 17/14 A2998 RMK A01 T01660140  RH  084%=      5-min Rain = 0
KFR1 252136Z 24008KT 17/14 A2998 RMK A01 T01680136  RH  081%=      5-min Rain = 0
KFR1 252137Z 23007KT 17/14 A2998 RMK A01 T01700138  RH  081%=      5-min Rain = 0
KFR1 252138Z 24009KT 17/14 A2997 RMK A01 T01710137  RH  081%=      5-min Rain = 0
KFR1 252139Z 22007KT 17/14 A2997 RMK A01 T01720137  RH  080%=      5-min Rain = 0
KFR1 252140Z 22007KT 17/14 A2997 RMK A01 T01730137  RH  079%=      5-min Rain = 0
KFR1 252141Z 22006KT 17/14 A2997 RMK A01 T01740138  RH  079%=      5-min Rain = 0
KFR1 252142Z 20005KT 17/14 A2997 RMK A01 T01740139  RH  080%=      5-min Rain = 0
KFR1 252143Z 20004KT 17/14 A2997 RMK A01 T01740142  RH  081%=      5-min Rain = 0
KFR1 252144Z 20004KT 17/14 A2997 RMK A01 T01730143  RH  083%=      5-min Rain = 0
KFR1 252145Z 19005KT 17/14 A2996 RMK A01 T01710144  RH  084%=      5-min Rain = 0
KFR1 252146Z 18005KT 17/14 A2996 RMK A01 T01700143  RH  084%=      5-min Rain = 0
KFR1 252147Z 17004KT 17/14 A2995 RMK A01 T01700144  RH  085%=      5-min Rain = 0
KFR1 252148Z 16004KT 17/14 A2994 RMK A01 T01690144  RH  085%=      5-min Rain = 0
KFR1 252149Z 14005KT 17/14 A2993 RMK A01 T01690142  RH  084%=      5-min Rain = 0
KFR1 252150Z 13007KT 17/14 A2992 RMK A01 T01690142  RH  084%=      5-min Rain = 0
KFR1 252151Z 12008KT 17/14 A2992 RMK A01 T01690144  RH  086%=      5-min Rain = 0
KFR1 252152Z 13006KT 17/15 A2992 RMK A01 T01680146  RH  087%=      5-min Rain = 0
KFR1 252153Z 16006KT 17/15 A2992 RMK A01 T01680146  RH  087%=      5-min Rain = 0
KFR1 252154Z 17007KT 17/15 A2993 RMK A01 T01670147  RH  088%=      5-min Rain = 0
KFR1 252155Z 17007KT 17/15 A2993 RMK A01 T01670146  RH  087%=      5-min Rain = 0
KFR1 252156Z 16007KT 17/15 A2993 RMK A01 T01670147  RH  088%=      5-min Rain = 0
KFR1 252157Z 14006KT 17/15 A2993 RMK A01 T01670146  RH  087%=      5-min Rain = 0
KFR1 252158Z 14006KT 17/15 A2993 RMK A01 T01670146  RH  087%=      5-min Rain = 0
KFR1 252159Z 13007KT 17/14 A2993 RMK A01 T01670144  RH  086%=      5-min Rain = 0
KFR1 252200Z 12009KT 17/14 A2993 RMK A01 T01670144  RH  086%=      5-min Rain = 0
KFR1 252201Z 12011KT 17/15 A2993 RMK A01 T01690147  RH  087%=      5-min Rain = 0
KFR1 252202Z 12011KT 17/15 A2993 RMK A01 T01700150  RH  088%=      5-min Rain = 0
KFR1 252203Z 12012KT 17/16 A2993 RMK A01 T01730156  RH  090%=      5-min Rain = 0
KFR1 252204Z 12011KT 17/16 A2993 RMK A01 T01740156  RH  089%=      5-min Rain = 0
KFR1 252205Z 13012KT 17/15 A2993 RMK A01 T01740152  RH  087%=      5-min Rain = 0
KFR1 252206Z 13013KT 17/15 A2993 RMK A01 T01740150  RH  086%=      5-min Rain = 0
KFR1 252207Z 12014KT 17/15 A2993 RMK A01 T01740148  RH  084%=      5-min Rain = 0
KFR1 252208Z 12011KT 18/15 A2993 RMK A01 T01750153  RH  087%=      5-min Rain = 0
KFR1 252209Z 12012KT 18/16 A2994 RMK A01 T01770155  RH  087%=      5-min Rain = 0
KFR1 252210Z 12011KT 18/16 A2994 RMK A01 T01780155  RH  087%=      5-min Rain = 0
KFR1 252211Z 13010KT 18/16 A2994 RMK A01 T01780155  RH  086%=      5-min Rain = 0
KFR1 252212Z 13012KT 18/15 A2994 RMK A01 T01780153  RH  085%=      5-min Rain = 0
KFR1 252213Z 13011KT 18/15 A2994 RMK A01 T01780150  RH  084%=      5-min Rain = 0
KFR1 252214Z 13007KT 18/15 A2993 RMK A01 T01770150  RH  084%=      5-min Rain = 0
KFR1 252215Z 13009KT 18/15 A2993 RMK A01 T01780152  RH  085%=      5-min Rain = 0
KFR1 252216Z 12006KT 18/16 A2993 RMK A01 T01800155  RH  085%=      5-min Rain = 0
KFR1 252217Z 13006KT 18/16 A2993 RMK A01 T01820158  RH  086%=      5-min Rain = 0
KFR1 252218Z 13009KT 18/16 A2993 RMK A01 T01840158  RH  085%=      5-min Rain = 0
KFR1 252219Z 13009KT 19/16 A2993 RMK A01 T01850155  RH  083%=      5-min Rain = 0
KFR1 252220Z 12007KT 19/16 A2992 RMK A01 T01850155  RH  082%=      5-min Rain = 0
KFR1 252221Z 12007KT 19/16 A2992 RMK A01 T01860160  RH  085%=      5-min Rain = 0
KFR1 252222Z 12009KT 19/16 A2992 RMK A01 T01860159  RH  084%=      5-min Rain = 0
KFR1 252223Z 13008KT 19/16 A2992 RMK A01 T01860160  RH  085%=      5-min Rain = 0
KFR1 252224Z 14007KT 19/16 A2992 RMK A01 T01870160  RH  084%=      5-min Rain = 0
KFR1 252225Z 14008KT 19/16 A2992 RMK A01 T01860160  RH  084%=      5-min Rain = 0
KFR1 252226Z 14007KT 19/16 A2992 RMK A01 T01860159  RH  084%=      5-min Rain = 0
KFR1 252227Z 14007KT 19/16 A2992 RMK A01 T01860160  RH  084%=      5-min Rain = 0
KFR1 252228Z 14009G14KT 19/16 A2992 RMK A01 T01860158  RH  084%=      5-min Rain = 0
KFR1 252229Z 15008KT 18/16 A2992 RMK A01 T01840158  RH  085%=      5-min Rain = 0
KFR1 252230Z 15007G12KT 18/16 A2992 RMK A01 T01840158  RH  084%=      5-min Rain = 0
KFR1 252231Z 15007KT 19/16 A2992 RMK A01 T01850160  RH  085%=      5-min Rain = 0
KFR1 252232Z 15007KT 19/16 A2992 RMK A01 T01860161  RH  085%=      5-min Rain = 0
KFR1 252233Z 15008KT 19/16 A2992 RMK A01 T01870160  RH  084%=      5-min Rain = 0
KFR1 252234Z 15007KT 19/16 A2992 RMK A01 T01870158  RH  083%=      5-min Rain = 0
KFR1 252235Z 15005KT 19/16 A2992 RMK A01 T01870160  RH  084%=      5-min Rain = 0
KFR1 252236Z 15006KT 19/16 A2992 RMK A01 T01870159  RH  084%=      5-min Rain = 0
KFR1 252237Z 14006KT 19/16 A2992 RMK A01 T01880158  RH  083%=      5-min Rain = 0
KFR1 252238Z 14007KT 19/16 A2992 RMK A01 T01890160  RH  083%=      5-min Rain = 0
KFR1 252239Z 13006KT 19/16 A2992 RMK A01 T01900158  RH  082%=      5-min Rain = 0
KFR1 252240Z 13008KT 19/16 A2992 RMK A01 T01910158  RH  081%=      5-min Rain = 0
KFR1 252241Z 13008KT 19/16 A2992 RMK A01 T01910159  RH  082%=      5-min Rain = 0
KFR1 252242Z 13009KT 19/16 A2992 RMK A01 T01910158  RH  081%=      5-min Rain = 0
KFR1 252243Z 13008KT 19/16 A2992 RMK A01 T01910160  RH  082%=      5-min Rain = 0
KFR1 252244Z 13006KT 19/16 A2992 RMK A01 T01910158  RH  081%=      5-min Rain = 0
KFR1 252245Z 13009KT 19/16 A2992 RMK A01 T01910159  RH  082%=      5-min Rain = 0
KFR1 252246Z 13007KT 19/16 A2992 RMK A01 T01910156  RH  080%=      5-min Rain = 0
KFR1 252247Z 16006KT 19/16 A2992 RMK A01 T01910159  RH  081%=      5-min Rain = 0
KFR1 252248Z 16007KT 19/16 A2992 RMK A01 T01930160  RH  081%=      5-min Rain = 0
KFR1 252249Z 16006KT 20/16 A2992 RMK A01 T01950163  RH  082%=      5-min Rain = 0
KFR1 252250Z 16005KT 20/17 A2992 RMK A01 T01970166  RH  082%=      5-min Rain = 0
KFR1 252251Z 17007KT 20/17 A2992 RMK A01 T01990165  RH  081%=      5-min Rain = 0
KFR1 252252Z 17007KT 20/17 A2992 RMK A01 T02000166  RH  081%=      5-min Rain = 0
KFR1 252253Z 17007KT 20/17 A2992 RMK A01 T02010167  RH  081%=      5-min Rain = 0
KFR1 252254Z 17009KT 20/17 A2992 RMK A01 T02020168  RH  081%=      5-min Rain = 0
KFR1 252255Z 17012KT 20/17 A2992 RMK A01 T02030167  RH  080%=      5-min Rain = 0
KFR1 252256Z 16012KT 20/17 A2993 RMK A01 T02030166  RH  079%=      5-min Rain = 0
KFR1 252257Z 16010KT 20/17 A2993 RMK A01 T02040167  RH  079%=      5-min Rain = 0
KFR1 252258Z 16010KT 21/17 A2993 RMK A01 T02050172  RH  081%=      5-min Rain = 0
KFR1 252259Z 16013KT 21/17 A2992 RMK A01 T02060167  RH  079%=      5-min Rain = 0
KFR1 252300Z 16013KT 21/17 A2992 RMK A01 T02050169  RH  080%=      5-min Rain = 0
KFR1 252301Z 16009KT 20/17 A2992 RMK A01 T02040170  RH  080%=      5-min Rain = 0
KFR1 252302Z 16010KT 20/17 A2993 RMK A01 T02040172  RH  082%=      5-min Rain = 0
KFR1 252303Z 17014KT 21/17 A2993 RMK A01 T02060172  RH  081%=      5-min Rain = 0
KFR1 252304Z 17012KT 21/17 A2992 RMK A01 T02070171  RH  080%=      5-min Rain = 0
KFR1 252305Z 16012KT 21/17 A2992 RMK A01 T02070172  RH  080%=      5-min Rain = 0
KFR1 252306Z 16011G16KT 21/17 A2992 RMK A01 T02070172  RH  080%=      5-min Rain = 0
KFR1 252307Z 16007KT 21/17 A2992 RMK A01 T02070173  RH  081%=      5-min Rain = 0
KFR1 252308Z 16013G19KT 21/17 A2992 RMK A01 T02080174  RH  081%=      5-min Rain = 0
KFR1 252309Z 17014G19KT 21/17 A2992 RMK A01 T02090171  RH  079%=      5-min Rain = 0
KFR1 252310Z 15012G21KT 21/17 A2992 RMK A01 T02090171  RH  079%=      5-min Rain = 0
KFR1 252311Z 14014G19KT 21/17 A2992 RMK A01 T02090167  RH  077%=      5-min Rain = 0
KFR1 252312Z 15013KT 21/17 A2992 RMK A01 T02060167  RH  078%=      5-min Rain = 0
KFR1 252313Z 15013KT 21/17 A2992 RMK A01 T02060166  RH  078%=      5-min Rain = 0
KFR1 252314Z 15016G22KT 21/17 A2992 RMK A01 T02050166  RH  078%=      5-min Rain = 0
KFR1 252315Z 15014G21KT 20/17 A2992 RMK A01 T02040166  RH  079%=      5-min Rain = 0
KFR1 252316Z 15010G18KT 21/17 A2991 RMK A01 T02050166  RH  079%=      5-min Rain = 0
KFR1 252317Z 15012G17KT 21/17 A2991 RMK A01 T02050167  RH  079%=      5-min Rain = 0
KFR1 252318Z 15014G21KT 21/17 A2991 RMK A01 T02060167  RH  078%=      5-min Rain = 0
KFR1 252319Z 15012G23KT 21/17 A2991 RMK A01 T02060167  RH  078%=      5-min Rain = 0
KFR1 252320Z 17018KT 21/17 A2991 RMK A01 T02080165  RH  077%=      5-min Rain = 0
KFR1 252321Z 16017G22KT 21/16 A2991 RMK A01 T02080164  RH  076%=      5-min Rain = 0
KFR1 252322Z 16018G24KT 21/16 A299 RMK A01 T02080163  RH  075%=      5-min Rain = 0
KFR1 252323Z 16018KT 21/16 A299 RMK A01 T02080162  RH  075%=      5-min Rain = 0
KFR1 252324Z 16017KT 21/16 A2991 RMK A01 T02080162  RH  075%=      5-min Rain = 0
KFR1 252325Z 16014KT 21/16 A299 RMK A01 T02080163  RH  075%=      5-min Rain = 0
KFR1 252326Z 16013KT 21/16 A299 RMK A01 T02090163  RH  075%=      5-min Rain = 0
KFR1 252327Z 15012G17KT 21/16 A299 RMK A01 T02100161  RH  074%=      5-min Rain = 0
KFR1 252328Z 16012KT 21/16 A299 RMK A01 T02100162  RH  074%=      5-min Rain = 0
KFR1 252329Z 16013G19KT 21/16 A299 RMK A01 T02110163  RH  074%=      5-min Rain = 0
KFR1 252330Z 16013G20KT 21/16 A299 RMK A01 T02110162  RH  073%=      5-min Rain = 0
KFR1 252331Z 16015G21KT 21/16 A299 RMK A01 T02120162  RH  073%=      5-min Rain = 0
KFR1 252332Z 16012G21KT 21/16 A299 RMK A01 T02120162  RH  073%=      5-min Rain = 0
KFR1 252333Z 16013G18KT 21/16 A299 RMK A01 T02120162  RH  073%=      5-min Rain = 0
KFR1 252334Z 17014G20KT 21/16 A299 RMK A01 T02130162  RH  073%=      5-min Rain = 0
KFR1 252335Z 16011G17KT 21/16 A299 RMK A01 T02130163  RH  073%=      5-min Rain = 0
KFR1 252336Z 17013KT 21/16 A299 RMK A01 T02130161  RH  072%=      5-min Rain = 0
KFR1 252337Z 15011KT 21/16 A299 RMK A01 T02130163  RH  073%=      5-min Rain = 0
KFR1 252338Z 16012G17KT 21/16 A299 RMK A01 T02130163  RH  073%=      5-min Rain = 0
KFR1 252339Z 16012KT 21/16 A299 RMK A01 T02140161  RH  072%=      5-min Rain = 0
KFR1 252340Z 16013KT 21/16 A299 RMK A01 T02140161  RH  071%=      5-min Rain = 0
KFR1 252341Z 16015G21KT 21/16 A2991 RMK A01 T02140160  RH  071%=      5-min Rain = 0
KFR1 252342Z 16013KT 21/16 A2991 RMK A01 T02140160  RH  071%=      5-min Rain = 0
KFR1 252343Z 16012G17KT 21/16 A2991 RMK A01 T02140161  RH  072%=      5-min Rain = 0
KFR1 252344Z 17014KT 21/16 A2991 RMK A01 T02140160  RH  071%=      5-min Rain = 0
KFR1 252345Z 16011KT 21/16 A2991 RMK A01 T02140160  RH  071%=      5-min Rain = 0
KFR1 252346Z 16012KT 22/16 A2991 RMK A01 T02150162  RH  072%=      5-min Rain = 0
KFR1 252347Z 17011KT 22/16 A2991 RMK A01 T02150162  RH  071%=      5-min Rain = 0
KFR1 252348Z 17012KT 22/16 A2991 RMK A01 T02150160  RH  071%=      5-min Rain = 0
KFR1 252349Z 18012KT 22/16 A2991 RMK A01 T02150158  RH  070%=      5-min Rain = 0
KFR1 252350Z 18011KT 22/16 A2991 RMK A01 T02160159  RH  070%=      5-min Rain = 0
KFR1 252351Z 18012KT 22/16 A2991 RMK A01 T02160159  RH  070%=      5-min Rain = 0
KFR1 252352Z 19010G15KT 22/16 A2991 RMK A01 T02170158  RH  069%=      5-min Rain = 0
KFR1 252353Z 19011KT 22/16 A2991 RMK A01 T02180157  RH  068%=      5-min Rain = 0
KFR1 252354Z 19011KT 22/16 A2991 RMK A01 T02190156  RH  068%=      5-min Rain = 0
KFR1 252355Z 19007KT 22/16 A2991 RMK A01 T02190157  RH  068%=      5-min Rain = 0
KFR1 252356Z 20007KT 22/16 A2991 RMK A01 T02200159  RH  068%=      5-min Rain = 0
KFR1 252357Z 19007KT 22/16 A2991 RMK A01 T02220161  RH  068%=      5-min Rain = 0
KFR1 252358Z 20008KT 22/16 A2991 RMK A01 T02240161  RH  067%=      5-min Rain = 0
KFR1 252359Z 20009KT 23/16 A2991 RMK A01 T02250160  RH  067%=      5-min Rain = 0
KFR1 260000Z 20010KT 23/16 A2991 RMK A01 T02250157  RH  065%=      5-min Rain = 0
KFR1 260001Z 20008KT 23/16 A2991 RMK A01 T02250160  RH  066%=      5-min Rain = 0
KFR1 260002Z 20009KT 23/16 A2991 RMK A01 T02260161  RH  067%=      5-min Rain = 0
KFR1 260003Z 20009KT 23/16 A2991 RMK A01 T02260158  RH  066%=      5-min Rain = 0
KFR1 260004Z 20008KT 23/16 A2991 RMK A01 T02260156  RH  065%=      5-min Rain = 0
KFR1 260005Z 20006KT 23/16 A2991 RMK A01 T02250159  RH  066%=      5-min Rain = 0
KFR1 260006Z 21007KT 23/16 A2991 RMK A01 T02250160  RH  067%=      5-min Rain = 0
KFR1 260007Z 20009KT 23/16 A2991 RMK A01 T02260156  RH  064%=      5-min Rain = 0
KFR1 260008Z 20008KT 23/16 A2991 RMK A01 T02270157  RH  065%=      5-min Rain = 0
KFR1 260009Z 20010KT 23/15 A2991 RMK A01 T02270154  RH  064%=      5-min Rain = 0
KFR1 260010Z 20007KT 23/16 A2991 RMK A01 T02270155  RH  064%=      5-min Rain = 0
KFR1 260011Z 20009KT 23/16 A2991 RMK A01 T02270156  RH  065%=      5-min Rain = 0
KFR1 260012Z 20009KT 23/16 A2991 RMK A01 T02270157  RH  065%=      5-min Rain = 0
KFR1 260013Z 21010G15KT 23/16 A2991 RMK A01 T02270159  RH  066%=      5-min Rain = 0
KFR1 260014Z 20014KT 23/16 A2991 RMK A01 T02260156  RH  064%=      5-min Rain = 0
KFR1 260015Z 20010KT 23/16 A2991 RMK A01 T02260156  RH  065%=      5-min Rain = 0
KFR1 260016Z 21007KT 23/16 A2991 RMK A01 T02250157  RH  066%=      5-min Rain = 0
KFR1 260017Z 20007KT 23/16 A2991 RMK A01 T02250158  RH  066%=      5-min Rain = 0
KFR1 260018Z 21008KT 23/16 A2991 RMK A01 T02250158  RH  066%=      5-min Rain = 0
KFR1 260019Z 20005KT 23/16 A2991 RMK A01 T02250161  RH  067%=      5-min Rain = 0
KFR1 260020Z 20007KT 23/16 A2991 RMK A01 T02260161  RH  067%=      5-min Rain = 0
KFR1 260021Z 21007KT 23/16 A2991 RMK A01 T02260161  RH  067%=      5-min Rain = 0
KFR1 260022Z 20008KT 23/16 A2991 RMK A01 T02260162  RH  067%=      5-min Rain = 0
KFR1 260023Z 20010KT 23/16 A2991 RMK A01 T02250160  RH  066%=      5-min Rain = 0
KFR1 260024Z 21008KT 23/16 A2991 RMK A01 T02250161  RH  067%=      5-min Rain = 0
KFR1 260025Z 20007KT 22/16 A2991 RMK A01 T02240161  RH  067%=      5-min Rain = 0
KFR1 260026Z 19007KT 23/16 A2991 RMK A01 T02250164  RH  068%=      5-min Rain = 0
KFR1 260027Z 19009KT 23/16 A2991 RMK A01 T02260164  RH  068%=      5-min Rain = 0
KFR1 260028Z 20010KT 23/16 A299 RMK A01 T02260163  RH  068%=      5-min Rain = 0
KFR1 260029Z 19009KT 23/16 A299 RMK A01 T02260163  RH  067%=      5-min Rain = 0
KFR1 260030Z 19011KT 23/16 A299 RMK A01 T02260164  RH  068%=      5-min Rain = 0
KFR1 260031Z 19011KT 23/16 A299 RMK A01 T02260163  RH  068%=      5-min Rain = 0
KFR1 260032Z 20008KT 23/16 A299 RMK A01 T02260164  RH  068%=      5-min Rain = 0
KFR1 260033Z 20009KT 23/17 A299 RMK A01 T02260167  RH  069%=      5-min Rain = 0
KFR1 260034Z 20010KT 23/17 A299 RMK A01 T02280167  RH  068%=      5-min Rain = 0
KFR1 260035Z 19011KT 23/17 A299 RMK A01 T02290167  RH  068%=      5-min Rain = 0
KFR1 260036Z 20010KT 23/17 A299 RMK A01 T02290167  RH  068%=      5-min Rain = 0
KFR1 260037Z 19009KT 23/17 A299 RMK A01 T02290167  RH  068%=      5-min Rain = 0
KFR1 260038Z 19009KT 23/17 A299 RMK A01 T02290169  RH  069%=      5-min Rain = 0
KFR1 260039Z 18009KT 23/17 A299 RMK A01 T02300170  RH  069%=      5-min Rain = 0
KFR1 260040Z 18010KT 23/17 A299 RMK A01 T02300170  RH  069%=      5-min Rain = 0
KFR1 260041Z 19012KT 23/17 A2989 RMK A01 T02310169  RH  068%=      5-min Rain = 0
KFR1 260042Z 19014KT 23/17 A2989 RMK A01 T02320169  RH  068%=      5-min Rain = 0
KFR1 260043Z 20013KT 23/17 A2989 RMK A01 T02330168  RH  067%=      5-min Rain = 0
KFR1 260044Z 20010KT 23/17 A2989 RMK A01 T02330168  RH  067%=      5-min Rain = 0
KFR1 260045Z 20008KT 23/17 A2989 RMK A01 T02330169  RH  067%=      5-min Rain = 0
KFR1 260046Z 20008KT 23/17 A2989 RMK A01 T02340169  RH  067%=      5-min Rain = 0
KFR1 260047Z 19012KT 23/17 A2989 RMK A01 T02340168  RH  067%=      5-min Rain = 0
KFR1 260048Z 19012KT 23/16 A2989 RMK A01 T02330164  RH  065%=      5-min Rain = 0
KFR1 260049Z 19012KT 23/17 A2989 RMK A01 T02330165  RH  065%=      5-min Rain = 0
KFR1 260050Z 19011KT 23/16 A2989 RMK A01 T02330164  RH  065%=      5-min Rain = 0
KFR1 260051Z 19010KT 23/17 A2989 RMK A01 T02320165  RH  066%=      5-min Rain = 0
KFR1 260052Z 18012KT 23/17 A2989 RMK A01 T02320165  RH  066%=      5-min Rain = 0
KFR1 260053Z 19010KT 23/16 A2989 RMK A01 T02320163  RH  065%=      5-min Rain = 0
KFR1 260054Z 19011KT 23/16 A2989 RMK A01 T02320162  RH  065%=      5-min Rain = 0
KFR1 260055Z 20007KT 23/16 A299 RMK A01 T02320164  RH  066%=      5-min Rain = 0
KFR1 260056Z 19007KT 23/17 A299 RMK A01 T02310165  RH  066%=      5-min Rain = 0
KFR1 260057Z 19008KT 23/16 A299 RMK A01 T02310163  RH  065%=      5-min Rain = 0
KFR1 260058Z 19009KT 23/16 A299 RMK A01 T02300163  RH  066%=      5-min Rain = 0
KFR1 260059Z 18010KT 23/16 A299 RMK A01 T02300162  RH  066%=      5-min Rain = 0
KFR1 260100Z 18010G15KT 23/16 A299 RMK A01 T02300163  RH  066%=      5-min Rain = 0
KFR1 260101Z 19012KT 23/16 A299 RMK A01 T02290163  RH  066%=      5-min Rain = 0
KFR1 260102Z 19013KT 23/16 A299 RMK A01 T02280163  RH  067%=      5-min Rain = 0
KFR1 260103Z 19010KT 23/16 A299 RMK A01 T02280163  RH  067%=      5-min Rain = 0
KFR1 260104Z 20008KT 23/16 A299 RMK A01 T02270163  RH  067%=      5-min Rain = 0
KFR1 260105Z 20009KT 23/16 A299 RMK A01 T02270164  RH  067%=      5-min Rain = 0
KFR1 260106Z 19008KT 23/17 A299 RMK A01 T02260165  RH  068%=      5-min Rain = 0
KFR1 260107Z 18008KT 23/16 A299 RMK A01 T02260163  RH  067%=      5-min Rain = 0
KFR1 260108Z 19005KT 23/16 A299 RMK A01 T02260164  RH  068%=      5-min Rain = 0
KFR1 260109Z 19006KT 23/17 A299 RMK A01 T02250165  RH  069%=      5-min Rain = 0
KFR1 260110Z 19006KT 22/16 A2991 RMK A01 T02240164  RH  068%=      5-min Rain = 0
KFR1 260111Z 20007KT 22/16 A2991 RMK A01 T02240163  RH  068%=      5-min Rain = 0
KFR1 260112Z 19008KT 22/16 A2991 RMK A01 T02240162  RH  068%=      5-min Rain = 0
KFR1 260113Z 19008KT 22/16 A2991 RMK A01 T02230161  RH  068%=      5-min Rain = 0
KFR1 260114Z 19006KT 22/16 A2991 RMK A01 T02240161  RH  068%=      5-min Rain = 0
KFR1 260115Z 20007KT 22/16 A2991 RMK A01 T02230161  RH  068%=      5-min Rain = 0
KFR1 260116Z 20008KT 22/16 A2991 RMK A01 T02230162  RH  068%=      5-min Rain = 0
KFR1 260117Z 21007KT 22/16 A2991 RMK A01 T02220162  RH  069%=      5-min Rain = 0
KFR1 260118Z 20007KT 22/16 A2991 RMK A01 T02220160  RH  068%=      5-min Rain = 0
KFR1 260119Z 20006KT 22/16 A2991 RMK A01 T02210160  RH  068%=      5-min Rain = 0
KFR1 260120Z 22008KT 22/16 A2991 RMK A01 T02220160  RH  068%=      5-min Rain = 0
KFR1 260121Z 21011KT 22/16 A2991 RMK A01 T02210158  RH  067%=      5-min Rain = 0
KFR1 260122Z 21010KT 22/16 A2991 RMK A01 T02220156  RH  066%=      5-min Rain = 0
KFR1 260123Z 20008KT 22/16 A2991 RMK A01 T02220157  RH  067%=      5-min Rain = 0
KFR1 260124Z 21007G12KT 22/16 A2991 RMK A01 T02220157  RH  067%=      5-min Rain = 0
KFR1 260125Z 22007KT 22/16 A2991 RMK A01 T02210158  RH  067%=      5-min Rain = 0
KFR1 260126Z 21004KT 22/16 A2991 RMK A01 T02200158  RH  068%=      5-min Rain = 0
KFR1 260127Z 20007KT 22/16 A299 RMK A01 T02200157  RH  067%=      5-min Rain = 0
KFR1 260128Z 19008KT 22/16 A299 RMK A01 T02200157  RH  067%=      5-min Rain = 0
KFR1 260129Z 20005KT 22/16 A299 RMK A01 T02190158  RH  068%=      5-min Rain = 0
KFR1 260130Z 19004KT 22/16 A299 RMK A01 T02180158  RH  068%=      5-min Rain = 0
KFR1 260131Z 21005KT 22/16 A299 RMK A01 T02180158  RH  069%=      5-min Rain = 0
KFR1 260132Z 20005KT 22/16 A299 RMK A01 T02170157  RH  069%=      5-min Rain = 0
KFR1 260133Z 25002KT 22/16 A299 RMK A01 T02170159  RH  070%=      5-min Rain = 0
KFR1 260134Z 19001KT 22/16 A299 RMK A01 T02160159  RH  070%=      5-min Rain = 0
KFR1 260135Z 16003KT 22/16 A299 RMK A01 T02150158  RH  070%=      5-min Rain = 0
KFR1 260136Z 09002KT 22/16 A299 RMK A01 T02150158  RH  070%=      5-min Rain = 0
KFR1 260137Z 11003KT 21/16 A299 RMK A01 T02140158  RH  071%=      5-min Rain = 0
KFR1 260138Z 13003KT 21/16 A299 RMK A01 T02130160  RH  072%=      5-min Rain = 0
KFR1 260139Z 16005KT 21/16 A299 RMK A01 T02110159  RH  072%=      5-min Rain = 0
KFR1 260140Z 13005KT 21/16 A299 RMK A01 T02120158  RH  071%=      5-min Rain = 0
KFR1 260141Z 12003KT 21/16 A299 RMK A01 T02130158  RH  071%=      5-min Rain = 0
KFR1 260142Z 11003KT 21/16 A299 RMK A01 T02140159  RH  071%=      5-min Rain = 0
KFR1 260143Z 11002KT 21/16 A2991 RMK A01 T02140158  RH  071%=      5-min Rain = 0
KFR1 260144Z 12003KT 21/16 A2991 RMK A01 T02140159  RH  071%=      5-min Rain = 0
KFR1 260145Z 12002KT 21/16 A2991 RMK A01 T02140160  RH  071%=      5-min Rain = 0
KFR1 260146Z 10002KT 21/16 A2991 RMK A01 T02130160  RH  072%=      5-min Rain = 0
KFR1 260147Z 10002KT 21/16 A2991 RMK A01 T02120159  RH  072%=      5-min Rain = 0
KFR1 260148Z 08003KT 21/16 A2991 RMK A01 T02100159  RH  073%=      5-min Rain = 0
KFR1 260149Z 09004KT 21/16 A2991 RMK A01 T02090159  RH  073%=      5-min Rain = 0
KFR1 260150Z 15003KT 21/16 A2991 RMK A01 T02090159  RH  073%=      5-min Rain = 0
KFR1 260151Z 19004KT 21/16 A2991 RMK A01 T02090160  RH  073%=      5-min Rain = 0
KFR1 260152Z 17003KT 21/16 A2991 RMK A01 T02090160  RH  074%=      5-min Rain = 0
KFR1 260153Z 15003KT 21/16 A2991 RMK A01 T02090160  RH  074%=      5-min Rain = 0
KFR1 260154Z 12003KT 21/16 A2991 RMK A01 T02080159  RH  073%=      5-min Rain = 0
KFR1 260155Z 14004KT 21/16 A2991 RMK A01 T02090159  RH  073%=      5-min Rain = 0
KFR1 260156Z 14002KT 21/16 A2991 RMK A01 T02100158  RH  072%=      5-min Rain = 0
KFR1 260157Z 09002KT 21/16 A2991 RMK A01 T02110158  RH  072%=      5-min Rain = 0
KFR1 260158Z 11003KT 21/16 A2991 RMK A01 T02110160  RH  072%=      5-min Rain = 0
KFR1 260159Z 11002KT 21/16 A2991 RMK A01 T02100160  RH  073%=      5-min Rain = 0
KFR1 260200Z 11002KT 21/16 A299 RMK A01 T02090160  RH  074%=      5-min Rain = 0
KFR1 260201Z 14002KT 21/16 A299 RMK A01 T02080159  RH  073%=      5-min Rain = 0
KFR1 260202Z 15002KT 21/16 A299 RMK A01 T02080158  RH  073%=      5-min Rain = 0
KFR1 260203Z 24002KT 21/16 A299 RMK A01 T02080158  RH  073%=      5-min Rain = 0
KFR1 260204Z 17003KT 21/16 A299 RMK A01 T02080158  RH  073%=      5-min Rain = 0
KFR1 260205Z 15002KT 21/16 A299 RMK A01 T02080158  RH  073%=      5-min Rain = 0
KFR1 260206Z 16003KT 21/16 A299 RMK A01 T02080158  RH  073%=      5-min Rain = 0
KFR1 260207Z 16002KT 21/16 A299 RMK A01 T02080159  RH  074%=      5-min Rain = 0
KFR1 260208Z 17003KT 21/16 A299 RMK A01 T02070159  RH  074%=      5-min Rain = 0
KFR1 260209Z 19004KT 21/16 A2991 RMK A01 T02060159  RH  074%=      5-min Rain = 0
KFR1 260210Z 17004KT 20/16 A2991 RMK A01 T02040159  RH  075%=      5-min Rain = 0
KFR1 260211Z 18003KT 20/16 A2991 RMK A01 T02020159  RH  076%=      5-min Rain = 0
KFR1 260212Z 14001KT 20/16 A299 RMK A01 T02010159  RH  077%=      5-min Rain = 0
KFR1 260213Z 22002KT 20/16 A299 RMK A01 T02000158  RH  077%=      5-min Rain = 0
KFR1 260214Z 20005KT 20/16 A299 RMK A01 T02000158  RH  077%=      5-min Rain = 0
KFR1 260215Z 18006KT 20/16 A299 RMK A01 T02010157  RH  075%=      5-min Rain = 0
KFR1 260216Z 19004KT 20/16 A299 RMK A01 T02030157  RH  075%=      5-min Rain = 0
KFR1 260217Z 21004KT 20/16 A299 RMK A01 T02040158  RH  075%=      5-min Rain = 0
KFR1 260218Z 19004KT 20/16 A2991 RMK A01 T02040158  RH  075%=      5-min Rain = 0
KFR1 260219Z 23003KT 20/16 A2991 RMK A01 T02040159  RH  075%=      5-min Rain = 0
KFR1 260220Z 22002KT 20/16 A2991 RMK A01 T02040158  RH  075%=      5-min Rain = 0
KFR1 260221Z 18002KT 20/16 A2991 RMK A01 T02030158  RH  075%=      5-min Rain = 0
KFR1 260222Z 20005KT 20/16 A2991 RMK A01 T02020156  RH  075%=      5-min Rain = 0
KFR1 260223Z 20008KT 20/16 A2991 RMK A01 T02040156  RH  074%=      5-min Rain = 0
KFR1 260224Z 20007KT 21/16 A2991 RMK A01 T02050156  RH  074%=      5-min Rain = 0
KFR1 260225Z 20007KT 21/16 A2991 RMK A01 T02050156  RH  074%=      5-min Rain = 0
KFR1 260226Z 20008KT 21/16 A2991 RMK A01 T02050155  RH  073%=      5-min Rain = 0
KFR1 260227Z 19007KT 21/16 A2991 RMK A01 T02060155  RH  073%=      5-min Rain = 0
KFR1 260228Z 20007KT 21/16 A2991 RMK A01 T02060156  RH  073%=      5-min Rain = 0
KFR1 260229Z 21006KT 21/16 A2991 RMK A01 T02060156  RH  073%=      5-min Rain = 0
KFR1 260230Z 22008KT 21/16 A2991 RMK A01 T02050156  RH  073%=      5-min Rain = 0
KFR1 260231Z 23008KT 21/16 A2991 RMK A01 T02050157  RH  074%=      5-min Rain = 0
KFR1 260232Z 23008KT 20/16 A2991 RMK A01 T02040157  RH  074%=      5-min Rain = 0
KFR1 260233Z 22007KT 20/16 A2991 RMK A01 T02030156  RH  074%=      5-min Rain = 0
KFR1 260234Z 24006KT 20/16 A2991 RMK A01 T02030156  RH  074%=      5-min Rain = 0
KFR1 260235Z 22008KT 20/16 A2991 RMK A01 T02030156  RH  074%=      5-min Rain = 0
KFR1 260236Z 20009KT 20/15 A2991 RMK A01 T02040154  RH  073%=      5-min Rain = 0
KFR1 260237Z 18006KT 21/16 A2991 RMK A01 T02060155  RH  072%=      5-min Rain = 0
KFR1 260238Z 22006KT 21/16 A2991 RMK A01 T02060155  RH  073%=      5-min Rain = 0
KFR1 260239Z 21006KT 21/16 A2991 RMK A01 T02060156  RH  073%=      5-min Rain = 0
KFR1 260240Z 21006KT 21/16 A2991 RMK A01 T02050156  RH  074%=      5-min Rain = 0
KFR1 260241Z 22003KT 20/16 A2991 RMK A01 T02040156  RH  074%=      5-min Rain = 0
KFR1 260242Z 23004KT 20/16 A2991 RMK A01 T02040156  RH  074%=      5-min Rain = 0
KFR1 260243Z 23005KT 20/16 A2991 RMK A01 T02040156  RH  074%=      5-min Rain = 0
KFR1 260244Z 22007KT 20/16 A2991 RMK A01 T02030155  RH  074%=      5-min Rain = 0
KFR1 260245Z 21007KT 20/16 A2991 RMK A01 T02020155  RH  074%=      5-min Rain = 0
KFR1 260246Z 21006KT 20/16 A2991 RMK A01 T02020156  RH  075%=      5-min Rain = 0
KFR1 260247Z 22006KT 20/16 A2991 RMK A01 T02010155  RH  075%=      5-min Rain = 0
KFR1 260248Z 21008KT 20/16 A2991 RMK A01 T02000156  RH  075%=      5-min Rain = 0
KFR1 260249Z 21008KT 20/15 A2991 RMK A01 T02000154  RH  075%=      5-min Rain = 0
KFR1 260250Z 22006KT 20/16 A2991 RMK A01 T02000155  RH  075%=      5-min Rain = 0
KFR1 260251Z 22005KT 20/16 A2991 RMK A01 T02000155  RH  075%=      5-min Rain = 0
KFR1 260252Z 21005KT 20/15 A2991 RMK A01 T01990154  RH  075%=      5-min Rain = 0
KFR1 260253Z 21005KT 20/16 A2991 RMK A01 T01990156  RH  076%=      5-min Rain = 0
KFR1 260254Z 22005KT 20/16 A2991 RMK A01 T01980156  RH  076%=      5-min Rain = 0
KFR1 260255Z 21004KT 20/16 A2991 RMK A01 T01970156  RH  077%=      5-min Rain = 0
KFR1 260256Z 22004KT 20/16 A2991 RMK A01 T01960156  RH  077%=      5-min Rain = 0
KFR1 260257Z 20004KT 20/16 A2991 RMK A01 T01960156  RH  078%=      5-min Rain = 0
KFR1 260258Z 20004KT 20/16 A2991 RMK A01 T01960155  RH  077%=      5-min Rain = 0
KFR1 260259Z 21003KT 20/16 A2991 RMK A01 T01960155  RH  077%=      5-min Rain = 0
KFR1 260300Z 21003KT 20/16 A2991 RMK A01 T01960155  RH  077%=      5-min Rain = 0
KFR1 260301Z 22004KT 20/15 A2991 RMK A01 T01960154  RH  077%=      5-min Rain = 0
KFR1 260302Z 21003KT 20/15 A2991 RMK A01 T01960153  RH  076%=      5-min Rain = 0
KFR1 260303Z 21003KT 20/15 A2992 RMK A01 T01960154  RH  076%=      5-min Rain = 0
KFR1 260304Z 21002KT 20/16 A2992 RMK A01 T01960155  RH  077%=      5-min Rain = 0
KFR1 260305Z 18002KT 20/15 A2992 RMK A01 T01950154  RH  077%=      5-min Rain = 0
KFR1 260306Z 14002KT 20/15 A2992 RMK A01 T01950154  RH  077%=      5-min Rain = 0
KFR1 260307Z 15001KT 20/15 A2992 RMK A01 T01950153  RH  077%=      5-min Rain = 0
KFR1 260308Z 21000KT 20/15 A2992 RMK A01 T01950154  RH  077%=      5-min Rain = 0
KFR1 260309Z 05001KT 20/15 A2992 RMK A01 T01950154  RH  077%=      5-min Rain = 0
KFR1 260310Z 07002KT 20/15 A2992 RMK A01 T01950154  RH  077%=      5-min Rain = 0
KFR1 260311Z 04001KT 19/15 A2992 RMK A01 T01940154  RH  078%=      5-min Rain = 0
KFR1 260312Z 10002KT 19/15 A2992 RMK A01 T01940153  RH  077%=      5-min Rain = 0
KFR1 260313Z 05002KT 20/15 A2992 RMK A01 T01950153  RH  077%=      5-min Rain = 0
KFR1 260314Z 04003KT 20/15 A2992 RMK A01 T01950154  RH  077%=      5-min Rain = 0
KFR1 260315Z 09002KT 20/16 A2992 RMK A01 T01950155  RH  077%=      5-min Rain = 0
KFR1 260316Z 10002KT 20/15 A2992 RMK A01 T01950154  RH  077%=      5-min Rain = 0
KFR1 260317Z 04003KT 20/15 A2992 RMK A01 T01950154  RH  077%=      5-min Rain = 0
KFR1 260318Z 04003KT 20/15 A2992 RMK A01 T01950154  RH  077%=      5-min Rain = 0
KFR1 260319Z 03005KT 20/15 A2992 RMK A01 T01960154  RH  077%=      5-min Rain = 0
KFR1 260320Z 03004KT 20/15 A2993 RMK A01 T01960153  RH  076%=      5-min Rain = 0
KFR1 260321Z 02006KT 20/15 A2993 RMK A01 T01960154  RH  077%=      5-min Rain = 0
KFR1 260322Z 02006KT 20/15 A2993 RMK A01 T01960154  RH  077%=      5-min Rain = 0
KFR1 260323Z 03004KT 20/15 A2993 RMK A01 T01950154  RH  077%=      5-min Rain = 0
KFR1 260324Z 04004KT 19/15 A2993 RMK A01 T01930154  RH  078%=      5-min Rain = 0
KFR1 260325Z 05003KT 19/15 A2993 RMK A01 T01920154  RH  079%=      5-min Rain = 0
KFR1 260326Z 07004KT 19/15 A2993 RMK A01 T01910154  RH  079%=      5-min Rain = 0
KFR1 260327Z 08005KT 19/15 A2993 RMK A01 T01900154  RH  079%=      5-min Rain = 0
KFR1 260328Z 07005KT 19/15 A2993 RMK A01 T01900153  RH  079%=      5-min Rain = 0
KFR1 260329Z 07004KT 19/15 A2993 RMK A01 T01920153  RH  078%=      5-min Rain = 0
KFR1 260330Z 07005KT 19/15 A2993 RMK A01 T01930153  RH  078%=      5-min Rain = 0
KFR1 260331Z 08005KT 19/15 A2993 RMK A01 T01940154  RH  078%=      5-min Rain = 0
KFR1 260332Z 08006KT 19/15 A2993 RMK A01 T01930153  RH  078%=      5-min Rain = 0
KFR1 260333Z 08006KT 19/15 A2994 RMK A01 T01920153  RH  078%=      5-min Rain = 0
KFR1 260334Z 08006KT 19/15 A2994 RMK A01 T01920153  RH  078%=      5-min Rain = 0
KFR1 260335Z 06005KT 19/15 A2994 RMK A01 T01910153  RH  078%=      5-min Rain = 0
KFR1 260336Z 07005KT 19/15 A2994 RMK A01 T01910152  RH  078%=      5-min Rain = 0
KFR1 260337Z 08005KT 19/15 A2994 RMK A01 T01920153  RH  078%=      5-min Rain = 0
KFR1 260338Z 09006KT 19/15 A2994 RMK A01 T01920153  RH  078%=      5-min Rain = 0
KFR1 260339Z 09007KT 19/15 A2994 RMK A01 T01920153  RH  078%=      5-min Rain = 0
KFR1 260340Z 08005KT 19/15 A2994 RMK A01 T01920153  RH  078%=      5-min Rain = 0
KFR1 260341Z 10004KT 19/15 A2994 RMK A01 T01930153  RH  078%=      5-min Rain = 0
KFR1 260342Z 10004KT 19/15 A2994 RMK A01 T01930153  RH  078%=      5-min Rain = 0
KFR1 260343Z 09006KT 19/15 A2994 RMK A01 T01930153  RH  078%=      5-min Rain = 0
KFR1 260344Z 11005KT 19/15 A2994 RMK A01 T01920154  RH  078%=      5-min Rain = 0
KFR1 260345Z 11005KT 19/15 A2994 RMK A01 T01920153  RH  078%=      5-min Rain = 0
KFR1 260346Z 10004KT 19/15 A2993 RMK A01 T01920153  RH  078%=      5-min Rain = 0
KFR1 260347Z 11004KT 19/15 A2993 RMK A01 T01930154  RH  078%=      5-min Rain = 0
KFR1 260348Z 13003KT 19/15 A2993 RMK A01 T01940154  RH  078%=      5-min Rain = 0
KFR1 260349Z 13004KT 19/16 A2993 RMK A01 T01940155  RH  078%=      5-min Rain = 0
KFR1 260350Z 12004KT 20/16 A2993 RMK A01 T01950155  RH  078%=      5-min Rain = 0
KFR1 260351Z 12005KT 20/16 A2993 RMK A01 T01950155  RH  078%=      5-min Rain = 0
KFR1 260352Z 15005KT 20/16 A2994 RMK A01 T01950155  RH  078%=      5-min Rain = 0
KFR1 260353Z 15004KT 20/16 A2994 RMK A01 T01960155  RH  077%=      5-min Rain = 0
KFR1 260354Z 16003KT 20/16 A2994 RMK A01 T01980155  RH  076%=      5-min Rain = 0
KFR1 260355Z 17004KT 20/16 A2994 RMK A01 T01980156  RH  076%=      5-min Rain = 0
KFR1 260356Z 17004KT 20/16 A2994 RMK A01 T01990157  RH  077%=      5-min Rain = 0
KFR1 260357Z 15004KT 20/16 A2994 RMK A01 T02000158  RH  077%=      5-min Rain = 0
KFR1 260358Z 14003KT 20/16 A2994 RMK A01 T02010158  RH  076%=      5-min Rain = 0
KFR1 260359Z 14002KT 20/16 A2994 RMK A01 T02000157  RH  076%=      5-min Rain = 0
KFR1 260400Z 14002KT 20/16 A2994 RMK A01 T02010158  RH  077%=      5-min Rain = 0
KFR1 260401Z 14004KT 20/16 A2994 RMK A01 T02000159  RH  077%=      5-min Rain = 0
KFR1 260402Z 14004KT 20/16 A2994 RMK A01 T02000160  RH  077%=      5-min Rain = 0
KFR1 260403Z 15004KT 20/16 A2994 RMK A01 T02010161  RH  078%=      5-min Rain = 0
KFR1 260404Z 14003KT 20/16 A2995 RMK A01 T02010162  RH  078%=      5-min Rain = 0
KFR1 260405Z 15003KT 20/16 A2995 RMK A01 T02010162  RH  078%=      5-min Rain = 0
KFR1 260406Z 15003KT 20/16 A2995 RMK A01 T02020163  RH  078%=      5-min Rain = 0
KFR1 260407Z 16003KT 20/16 A2995 RMK A01 T02020164  RH  079%=      5-min Rain = 0
KFR1 260408Z 15004KT 20/17 A2995 RMK A01 T02020165  RH  079%=      5-min Rain = 0
KFR1 260409Z 15004KT 20/17 A2995 RMK A01 T02030166  RH  079%=      5-min Rain = 0
KFR1 260410Z 13004KT 20/17 A2995 RMK A01 T02030167  RH  080%=      5-min Rain = 0
KFR1 260411Z 13004KT 20/17 A2995 RMK A01 T02040168  RH  080%=      5-min Rain = 0
KFR1 260412Z 09003KT 20/17 A2995 RMK A01 T02040166  RH  079%=      5-min Rain = 0
KFR1 260413Z 09004KT 20/16 A2995 RMK A01 T02010161  RH  078%=      5-min Rain = 0
KFR1 260414Z 09006KT 20/16 A2995 RMK A01 T01980160  RH  078%=      5-min Rain = 0
KFR1 260415Z 09006KT 20/16 A2995 RMK A01 T01960160  RH  080%=      5-min Rain = 0
KFR1 260416Z 09006KT 20/16 A2995 RMK A01 T01950160  RH  080%=      5-min Rain = 0
KFR1 260417Z 09006KT 19/16 A2995 RMK A01 T01940161  RH  081%=      5-min Rain = 0
KFR1 260418Z 07005KT 19/16 A2995 RMK A01 T01940161  RH  081%=      5-min Rain = 0
KFR1 260419Z 08006KT 19/16 A2995 RMK A01 T01940161  RH  082%=      5-min Rain = 0
KFR1 260420Z 08006KT 19/16 A2995 RMK A01 T01930162  RH  082%=      5-min Rain = 0
KFR1 260421Z 07005KT 19/16 A2995 RMK A01 T01930162  RH  082%=      5-min Rain = 0
KFR1 260422Z 08005KT 19/16 A2995 RMK A01 T01930161  RH  082%=      5-min Rain = 0
KFR1 260423Z 08006KT 19/16 A2995 RMK A01 T01930161  RH  082%=      5-min Rain = 0
KFR1 260424Z 07006KT 19/16 A2995 RMK A01 T01920161  RH  082%=      5-min Rain = 0
KFR1 260425Z 08005KT 19/16 A2995 RMK A01 T01920161  RH  082%=      5-min Rain = 0
KFR1 260426Z 08006KT 19/16 A2995 RMK A01 T01920162  RH  083%=      5-min Rain = 0
KFR1 260427Z 09006KT 19/16 A2995 RMK A01 T01920162  RH  083%=      5-min Rain = 0
KFR1 260428Z 09006KT 19/16 A2995 RMK A01 T01920162  RH  083%=      5-min Rain = 0
KFR1 260429Z 09005KT 19/16 A2995 RMK A01 T01910162  RH  083%=      5-min Rain = 0
KFR1 260430Z 09006KT 19/16 A2995 RMK A01 T01910162  RH  083%=      5-min Rain = 0
KFR1 260431Z 09006KT 19/16 A2995 RMK A01 T01900162  RH  084%=      5-min Rain = 0
KFR1 260432Z 08007KT 19/16 A2995 RMK A01 T01910163  RH  084%=      5-min Rain = 0
KFR1 260433Z 09007KT 19/16 A2995 RMK A01 T01910163  RH  084%=      5-min Rain = 0
KFR1 260434Z 09007KT 19/16 A2995 RMK A01 T01920164  RH  084%=      5-min Rain = 0
KFR1 260435Z 09006KT 19/16 A2995 RMK A01 T01930164  RH  083%=      5-min Rain = 0
KFR1 260436Z 09006KT 19/17 A2995 RMK A01 T01930165  RH  084%=      5-min Rain = 0
KFR1 260437Z 10006KT 19/17 A2995 RMK A01 T01930165  RH  084%=      5-min Rain = 0
KFR1 260438Z 09006KT 19/16 A2995 RMK A01 T01930164  RH  083%=      5-min Rain = 0
KFR1 260439Z 09007KT 19/17 A2995 RMK A01 T01930165  RH  083%=      5-min Rain = 0
KFR1 260440Z 09007KT 19/17 A2995 RMK A01 T01930165  RH  084%=      5-min Rain = 0
KFR1 260441Z 09008KT 19/17 A2995 RMK A01 T01940165  RH  084%=      5-min Rain = 0
KFR1 260442Z 09008KT 20/17 A2995 RMK A01 T01950165  RH  083%=      5-min Rain = 0
KFR1 260443Z 09007KT 20/17 A2995 RMK A01 T01960166  RH  082%=      5-min Rain = 0
KFR1 260444Z 09007KT 20/17 A2995 RMK A01 T01960165  RH  082%=      5-min Rain = 0
KFR1 260445Z 09008KT 20/17 A2995 RMK A01 T01950165  RH  083%=      5-min Rain = 0
KFR1 260446Z 10008KT 20/17 A2995 RMK A01 T01950166  RH  083%=      5-min Rain = 0
KFR1 260447Z 10009KT 20/17 A2995 RMK A01 T01950166  RH  083%=      5-min Rain = 0
KFR1 260448Z 09008KT 20/17 A2995 RMK A01 T01950167  RH  084%=      5-min Rain = 0
KFR1 260449Z 10008KT 20/17 A2995 RMK A01 T01960167  RH  083%=      5-min Rain = 0
KFR1 260450Z 10007KT 20/17 A2995 RMK A01 T01960167  RH  083%=      5-min Rain = 0
KFR1 260451Z 10007KT 20/17 A2995 RMK A01 T01960167  RH  083%=      5-min Rain = 0
KFR1 260452Z 10008KT 20/17 A2995 RMK A01 T01960167  RH  083%=      5-min Rain = 0
KFR1 260453Z 10007KT 20/17 A2995 RMK A01 T01960167  RH  083%=      5-min Rain = 0
KFR1 260454Z 10008KT 20/17 A2995 RMK A01 T01960167  RH  083%=      5-min Rain = 0
KFR1 260455Z 10008KT 20/17 A2995 RMK A01 T01970167  RH  083%=      5-min Rain = 0
KFR1 260456Z 10007KT 20/17 A2995 RMK A01 T01970167  RH  083%=      5-min Rain = 0
KFR1 260457Z 10009KT 20/17 A2995 RMK A01 T01960167  RH  083%=      5-min Rain = 0
KFR1 260458Z 10007KT 20/17 A2995 RMK A01 T01960167  RH  083%=      5-min Rain = 0
KFR1 260459Z 10006KT 20/17 A2995 RMK A01 T01960167  RH  083%=      5-min Rain = 0

Page generated in 0.1224 seconds.